<?xml version="1.0" encoding="UTF-8" standalone="no" ?>
<gpx xmlns="http://www.topografix.com/GPX/1/1" xmlns:xsi="http://www.w3.org/2001/XMLSchema-instance" xsi:schemaLocation="http://www.topografix.com/GPX/1/1 http://www.topografix.com/GPX/1/1/gpx.xsd" version="1.1" creator="VisuGPX - https://www.visugpx.com">
  <metadata>
    <name>Aouste Cobonne</name>
    <desc><![CDATA[File with points/tracks from Locus Pro/3.9.0]]></desc>
  </metadata>
  <trk>
    <name><![CDATA[F26 LT MJC Aouste Cobonne]]></name>
    <trkseg>
      <trkpt lat="44.71414" lon="5.05659">
        <ele>195.38</ele>
        <time>2015-05-26T07:40:55Z</time>
      </trkpt>
      <trkpt lat="44.71415" lon="5.0567">
        <ele>196.27</ele>
        <time>2015-05-26T07:41:05Z</time>
      </trkpt>
      <trkpt lat="44.71421" lon="5.05685">
        <ele>196.03</ele>
        <time>2015-05-26T07:41:20Z</time>
      </trkpt>
      <trkpt lat="44.71427" lon="5.05702">
        <ele>195.08</ele>
        <time>2015-05-26T07:41:42Z</time>
      </trkpt>
      <trkpt lat="44.71435" lon="5.05709">
        <ele>195.8</ele>
        <time>2015-05-26T07:42:06Z</time>
      </trkpt>
      <trkpt lat="44.71446" lon="5.0571">
        <ele>195.41</ele>
        <time>2015-05-26T07:42:16Z</time>
      </trkpt>
      <trkpt lat="44.71456" lon="5.0571">
        <ele>194.93</ele>
        <time>2015-05-26T07:42:26Z</time>
      </trkpt>
      <trkpt lat="44.71465" lon="5.05711">
        <ele>194.03</ele>
        <time>2015-05-26T07:42:36Z</time>
      </trkpt>
      <trkpt lat="44.71474" lon="5.05712">
        <ele>193.03</ele>
        <time>2015-05-26T07:42:46Z</time>
      </trkpt>
      <trkpt lat="44.71484" lon="5.05714">
        <ele>193.16</ele>
        <time>2015-05-26T07:42:56Z</time>
      </trkpt>
      <trkpt lat="44.71492" lon="5.05722">
        <ele>193.1</ele>
        <time>2015-05-26T07:43:09Z</time>
      </trkpt>
      <trkpt lat="44.71494" lon="5.05732">
        <ele>192.56</ele>
        <time>2015-05-26T07:43:19Z</time>
      </trkpt>
      <trkpt lat="44.71493" lon="5.05739">
        <ele>192.03</ele>
        <time>2015-05-26T07:43:35Z</time>
      </trkpt>
      <trkpt lat="44.71529" lon="5.05829">
        <ele>185.53</ele>
        <time>2015-05-26T07:45:00Z</time>
      </trkpt>
      <trkpt lat="44.71515" lon="5.05853">
        <ele>186.27</ele>
        <time>2015-05-26T07:45:10Z</time>
      </trkpt>
      <trkpt lat="44.71515" lon="5.05869">
        <ele>186.87</ele>
        <time>2015-05-26T07:45:20Z</time>
      </trkpt>
      <trkpt lat="44.71522" lon="5.05888">
        <ele>188.1</ele>
        <time>2015-05-26T07:45:35Z</time>
      </trkpt>
      <trkpt lat="44.71526" lon="5.05907">
        <ele>187.61</ele>
        <time>2015-05-26T07:45:49Z</time>
      </trkpt>
      <trkpt lat="44.71524" lon="5.05921">
        <ele>187.1</ele>
        <time>2015-05-26T07:45:59Z</time>
      </trkpt>
      <trkpt lat="44.71523" lon="5.05957">
        <ele>186.92</ele>
        <time>2015-05-26T07:46:22Z</time>
      </trkpt>
      <trkpt lat="44.71521" lon="5.0597">
        <ele>187.73</ele>
        <time>2015-05-26T07:46:32Z</time>
      </trkpt>
      <trkpt lat="44.71524" lon="5.0598">
        <ele>189.14</ele>
        <time>2015-05-26T07:46:42Z</time>
      </trkpt>
      <trkpt lat="44.7153" lon="5.05997">
        <ele>189.5</ele>
        <time>2015-05-26T07:46:54Z</time>
      </trkpt>
      <trkpt lat="44.71535" lon="5.06014">
        <ele>189.73</ele>
        <time>2015-05-26T07:47:06Z</time>
      </trkpt>
      <trkpt lat="44.71541" lon="5.06028">
        <ele>191.53</ele>
        <time>2015-05-26T07:47:17Z</time>
      </trkpt>
      <trkpt lat="44.71546" lon="5.06045">
        <ele>192.79</ele>
        <time>2015-05-26T07:47:27Z</time>
      </trkpt>
      <trkpt lat="44.71548" lon="5.06055">
        <ele>193.87</ele>
        <time>2015-05-26T07:47:37Z</time>
      </trkpt>
      <trkpt lat="44.71546" lon="5.06071">
        <ele>194.67</ele>
        <time>2015-05-26T07:47:48Z</time>
      </trkpt>
      <trkpt lat="44.7155" lon="5.06084">
        <ele>195.67</ele>
        <time>2015-05-26T07:47:58Z</time>
      </trkpt>
      <trkpt lat="44.71553" lon="5.06104">
        <ele>196.27</ele>
        <time>2015-05-26T07:48:13Z</time>
      </trkpt>
      <trkpt lat="44.71552" lon="5.06127">
        <ele>195.6</ele>
        <time>2015-05-26T07:48:31Z</time>
      </trkpt>
      <trkpt lat="44.71559" lon="5.06142">
        <ele>196.69</ele>
        <time>2015-05-26T07:48:41Z</time>
      </trkpt>
      <trkpt lat="44.71564" lon="5.06159">
        <ele>196.84</ele>
        <time>2015-05-26T07:48:53Z</time>
      </trkpt>
      <trkpt lat="44.71569" lon="5.06176">
        <ele>197.28</ele>
        <time>2015-05-26T07:49:03Z</time>
      </trkpt>
      <trkpt lat="44.71574" lon="5.06188">
        <ele>197.89</ele>
        <time>2015-05-26T07:49:13Z</time>
      </trkpt>
      <trkpt lat="44.71574" lon="5.06204">
        <ele>198.8</ele>
        <time>2015-05-26T07:49:23Z</time>
      </trkpt>
      <trkpt lat="44.71577" lon="5.06218">
        <ele>199.03</ele>
        <time>2015-05-26T07:49:33Z</time>
      </trkpt>
      <trkpt lat="44.71577" lon="5.06234">
        <ele>198.61</ele>
        <time>2015-05-26T07:49:43Z</time>
      </trkpt>
      <trkpt lat="44.71578" lon="5.06251">
        <ele>198.77</ele>
        <time>2015-05-26T07:49:53Z</time>
      </trkpt>
      <trkpt lat="44.71581" lon="5.06266">
        <ele>199.29</ele>
        <time>2015-05-26T07:50:03Z</time>
      </trkpt>
      <trkpt lat="44.71585" lon="5.06277">
        <ele>199.28</ele>
        <time>2015-05-26T07:50:13Z</time>
      </trkpt>
      <trkpt lat="44.71589" lon="5.06293">
        <ele>199.3</ele>
        <time>2015-05-26T07:50:23Z</time>
      </trkpt>
      <trkpt lat="44.71594" lon="5.06309">
        <ele>198.52</ele>
        <time>2015-05-26T07:50:33Z</time>
      </trkpt>
      <trkpt lat="44.71597" lon="5.06325">
        <ele>198.18</ele>
        <time>2015-05-26T07:50:43Z</time>
      </trkpt>
      <trkpt lat="44.71603" lon="5.0634">
        <ele>198.6</ele>
        <time>2015-05-26T07:50:53Z</time>
      </trkpt>
      <trkpt lat="44.7161" lon="5.06351">
        <ele>198.43</ele>
        <time>2015-05-26T07:51:03Z</time>
      </trkpt>
      <trkpt lat="44.71616" lon="5.06368">
        <ele>198.21</ele>
        <time>2015-05-26T07:51:16Z</time>
      </trkpt>
      <trkpt lat="44.7162" lon="5.06382">
        <ele>198.59</ele>
        <time>2015-05-26T07:51:26Z</time>
      </trkpt>
      <trkpt lat="44.71627" lon="5.06396">
        <ele>198.87</ele>
        <time>2015-05-26T07:51:36Z</time>
      </trkpt>
      <trkpt lat="44.71633" lon="5.0641">
        <ele>198.33</ele>
        <time>2015-05-26T07:51:46Z</time>
      </trkpt>
      <trkpt lat="44.71637" lon="5.06424">
        <ele>197.9</ele>
        <time>2015-05-26T07:51:56Z</time>
      </trkpt>
      <trkpt lat="44.71642" lon="5.06436">
        <ele>198.59</ele>
        <time>2015-05-26T07:52:06Z</time>
      </trkpt>
      <trkpt lat="44.71646" lon="5.06452">
        <ele>199.12</ele>
        <time>2015-05-26T07:52:16Z</time>
      </trkpt>
      <trkpt lat="44.71652" lon="5.06465">
        <ele>198.71</ele>
        <time>2015-05-26T07:52:26Z</time>
      </trkpt>
      <trkpt lat="44.71656" lon="5.06479">
        <ele>198.68</ele>
        <time>2015-05-26T07:52:36Z</time>
      </trkpt>
      <trkpt lat="44.71663" lon="5.06492">
        <ele>199.39</ele>
        <time>2015-05-26T07:52:46Z</time>
      </trkpt>
      <trkpt lat="44.71671" lon="5.06503">
        <ele>199.6</ele>
        <time>2015-05-26T07:52:56Z</time>
      </trkpt>
      <trkpt lat="44.71678" lon="5.06513">
        <ele>200.17</ele>
        <time>2015-05-26T07:53:06Z</time>
      </trkpt>
      <trkpt lat="44.71685" lon="5.06527">
        <ele>201.05</ele>
        <time>2015-05-26T07:53:19Z</time>
      </trkpt>
      <trkpt lat="44.71691" lon="5.0654">
        <ele>202.24</ele>
        <time>2015-05-26T07:53:29Z</time>
      </trkpt>
      <trkpt lat="44.71695" lon="5.06557">
        <ele>202.68</ele>
        <time>2015-05-26T07:53:39Z</time>
      </trkpt>
      <trkpt lat="44.71701" lon="5.0657">
        <ele>202.7</ele>
        <time>2015-05-26T07:53:49Z</time>
      </trkpt>
      <trkpt lat="44.71702" lon="5.06583">
        <ele>202.9</ele>
        <time>2015-05-26T07:54:01Z</time>
      </trkpt>
      <trkpt lat="44.71704" lon="5.06594">
        <ele>203.37</ele>
        <time>2015-05-26T07:54:11Z</time>
      </trkpt>
      <trkpt lat="44.71708" lon="5.06605">
        <ele>203.92</ele>
        <time>2015-05-26T07:54:21Z</time>
      </trkpt>
      <trkpt lat="44.71708" lon="5.06619">
        <ele>204.25</ele>
        <time>2015-05-26T07:54:31Z</time>
      </trkpt>
      <trkpt lat="44.71709" lon="5.06633">
        <ele>205.37</ele>
        <time>2015-05-26T07:54:41Z</time>
      </trkpt>
      <trkpt lat="44.71711" lon="5.06648">
        <ele>206.07</ele>
        <time>2015-05-26T07:54:51Z</time>
      </trkpt>
      <trkpt lat="44.71715" lon="5.06657">
        <ele>207.25</ele>
        <time>2015-05-26T07:55:06Z</time>
      </trkpt>
      <trkpt lat="44.71722" lon="5.06658">
        <ele>207.6</ele>
        <time>2015-05-26T07:55:16Z</time>
      </trkpt>
      <trkpt lat="44.7173" lon="5.0666">
        <ele>208.56</ele>
        <time>2015-05-26T07:55:27Z</time>
      </trkpt>
      <trkpt lat="44.71775" lon="5.06673">
        <ele>212.17</ele>
        <time>2015-05-26T07:56:20Z</time>
      </trkpt>
      <trkpt lat="44.71786" lon="5.06686">
        <ele>213.9</ele>
        <time>2015-05-26T07:56:41Z</time>
      </trkpt>
      <trkpt lat="44.718" lon="5.06704">
        <ele>214.69</ele>
        <time>2015-05-26T07:57:03Z</time>
      </trkpt>
      <trkpt lat="44.71819" lon="5.06712">
        <ele>216.07</ele>
        <time>2015-05-26T07:57:27Z</time>
      </trkpt>
      <trkpt lat="44.71837" lon="5.06736">
        <ele>219.96</ele>
        <time>2015-05-26T07:57:58Z</time>
      </trkpt>
      <trkpt lat="44.71856" lon="5.06754">
        <ele>225.87</ele>
        <time>2015-05-26T07:58:26Z</time>
      </trkpt>
      <trkpt lat="44.71871" lon="5.06757">
        <ele>228.52</ele>
        <time>2015-05-26T07:58:38Z</time>
      </trkpt>
      <trkpt lat="44.7188" lon="5.06763">
        <ele>232.29</ele>
        <time>2015-05-26T07:58:49Z</time>
      </trkpt>
      <trkpt lat="44.71885" lon="5.06773">
        <ele>234.47</ele>
        <time>2015-05-26T07:59:01Z</time>
      </trkpt>
      <trkpt lat="44.71891" lon="5.06778">
        <ele>235.98</ele>
        <time>2015-05-26T07:59:11Z</time>
      </trkpt>
      <trkpt lat="44.71899" lon="5.06785">
        <ele>238.36</ele>
        <time>2015-05-26T07:59:21Z</time>
      </trkpt>
      <trkpt lat="44.71914" lon="5.06795">
        <ele>240.24</ele>
        <time>2015-05-26T07:59:36Z</time>
      </trkpt>
      <trkpt lat="44.71923" lon="5.06797">
        <ele>242.53</ele>
        <time>2015-05-26T07:59:46Z</time>
      </trkpt>
      <trkpt lat="44.71928" lon="5.06807">
        <ele>243.36</ele>
        <time>2015-05-26T07:59:56Z</time>
      </trkpt>
      <trkpt lat="44.71932" lon="5.06824">
        <ele>245.24</ele>
        <time>2015-05-26T08:00:10Z</time>
      </trkpt>
      <trkpt lat="44.71943" lon="5.0683">
        <ele>246.69</ele>
        <time>2015-05-26T08:00:24Z</time>
      </trkpt>
      <trkpt lat="44.71954" lon="5.0684">
        <ele>246.8</ele>
        <time>2015-05-26T08:00:41Z</time>
      </trkpt>
      <trkpt lat="44.71963" lon="5.06847">
        <ele>246.14</ele>
        <time>2015-05-26T08:00:52Z</time>
      </trkpt>
      <trkpt lat="44.7197" lon="5.06858">
        <ele>245.81</ele>
        <time>2015-05-26T08:01:04Z</time>
      </trkpt>
      <trkpt lat="44.71978" lon="5.06866">
        <ele>246.17</ele>
        <time>2015-05-26T08:01:14Z</time>
      </trkpt>
      <trkpt lat="44.71984" lon="5.06876">
        <ele>246.3</ele>
        <time>2015-05-26T08:01:24Z</time>
      </trkpt>
      <trkpt lat="44.71988" lon="5.06881">
        <ele>246.14</ele>
        <time>2015-05-26T08:01:36Z</time>
      </trkpt>
      <trkpt lat="44.71993" lon="5.06886">
        <ele>246.31</ele>
        <time>2015-05-26T08:01:49Z</time>
      </trkpt>
      <trkpt lat="44.72" lon="5.06897">
        <ele>246.4</ele>
        <time>2015-05-26T08:02:08Z</time>
      </trkpt>
      <trkpt lat="44.72022" lon="5.0691">
        <ele>245.23</ele>
        <time>2015-05-26T08:02:27Z</time>
      </trkpt>
      <trkpt lat="44.72042" lon="5.06926">
        <ele>245.59</ele>
        <time>2015-05-26T08:02:44Z</time>
      </trkpt>
      <trkpt lat="44.7205" lon="5.06936">
        <ele>245.77</ele>
        <time>2015-05-26T08:02:56Z</time>
      </trkpt>
      <trkpt lat="44.72056" lon="5.06953">
        <ele>246.3</ele>
        <time>2015-05-26T08:03:06Z</time>
      </trkpt>
      <trkpt lat="44.72056" lon="5.06969">
        <ele>246.69</ele>
        <time>2015-05-26T08:03:16Z</time>
      </trkpt>
      <trkpt lat="44.72054" lon="5.06986">
        <ele>247.43</ele>
        <time>2015-05-26T08:03:26Z</time>
      </trkpt>
      <trkpt lat="44.72057" lon="5.07">
        <ele>249.57</ele>
        <time>2015-05-26T08:03:38Z</time>
      </trkpt>
      <trkpt lat="44.72056" lon="5.07016">
        <ele>250.4</ele>
        <time>2015-05-26T08:03:48Z</time>
      </trkpt>
      <trkpt lat="44.7206" lon="5.07024">
        <ele>251.34</ele>
        <time>2015-05-26T08:03:58Z</time>
      </trkpt>
      <trkpt lat="44.7206" lon="5.07037">
        <ele>254.09</ele>
        <time>2015-05-26T08:04:09Z</time>
      </trkpt>
      <trkpt lat="44.72059" lon="5.07053">
        <ele>255.8</ele>
        <time>2015-05-26T08:04:19Z</time>
      </trkpt>
      <trkpt lat="44.72059" lon="5.07075">
        <ele>256.57</ele>
        <time>2015-05-26T08:04:30Z</time>
      </trkpt>
      <trkpt lat="44.72055" lon="5.07096">
        <ele>257.91</ele>
        <time>2015-05-26T08:04:40Z</time>
      </trkpt>
      <trkpt lat="44.72051" lon="5.07117">
        <ele>260.04</ele>
        <time>2015-05-26T08:04:56Z</time>
      </trkpt>
      <trkpt lat="44.7205" lon="5.07132">
        <ele>261.23</ele>
        <time>2015-05-26T08:05:06Z</time>
      </trkpt>
      <trkpt lat="44.7205" lon="5.07147">
        <ele>262.69</ele>
        <time>2015-05-26T08:05:18Z</time>
      </trkpt>
      <trkpt lat="44.72049" lon="5.07158">
        <ele>264.14</ele>
        <time>2015-05-26T08:05:28Z</time>
      </trkpt>
      <trkpt lat="44.72045" lon="5.07173">
        <ele>266.06</ele>
        <time>2015-05-26T08:05:40Z</time>
      </trkpt>
      <trkpt lat="44.72045" lon="5.07187">
        <ele>267.29</ele>
        <time>2015-05-26T08:05:50Z</time>
      </trkpt>
      <trkpt lat="44.72044" lon="5.07203">
        <ele>268.49</ele>
        <time>2015-05-26T08:06:01Z</time>
      </trkpt>
      <trkpt lat="44.72044" lon="5.07222">
        <ele>270.46</ele>
        <time>2015-05-26T08:06:16Z</time>
      </trkpt>
      <trkpt lat="44.72046" lon="5.07234">
        <ele>271.47</ele>
        <time>2015-05-26T08:06:26Z</time>
      </trkpt>
      <trkpt lat="44.72047" lon="5.07243">
        <ele>272.86</ele>
        <time>2015-05-26T08:06:36Z</time>
      </trkpt>
      <trkpt lat="44.72054" lon="5.07255">
        <ele>274.58</ele>
        <time>2015-05-26T08:06:46Z</time>
      </trkpt>
      <trkpt lat="44.72056" lon="5.07265">
        <ele>275.26</ele>
        <time>2015-05-26T08:06:56Z</time>
      </trkpt>
      <trkpt lat="44.72057" lon="5.07276">
        <ele>276.53</ele>
        <time>2015-05-26T08:07:06Z</time>
      </trkpt>
      <trkpt lat="44.72057" lon="5.07291">
        <ele>277.74</ele>
        <time>2015-05-26T08:07:19Z</time>
      </trkpt>
      <trkpt lat="44.72057" lon="5.07309">
        <ele>278.57</ele>
        <time>2015-05-26T08:07:29Z</time>
      </trkpt>
      <trkpt lat="44.72057" lon="5.07327">
        <ele>279.97</ele>
        <time>2015-05-26T08:07:44Z</time>
      </trkpt>
      <trkpt lat="44.72054" lon="5.07342">
        <ele>281.17</ele>
        <time>2015-05-26T08:07:56Z</time>
      </trkpt>
      <trkpt lat="44.72051" lon="5.07358">
        <ele>282.27</ele>
        <time>2015-05-26T08:08:06Z</time>
      </trkpt>
      <trkpt lat="44.72053" lon="5.07371">
        <ele>283.57</ele>
        <time>2015-05-26T08:08:16Z</time>
      </trkpt>
      <trkpt lat="44.72056" lon="5.07385">
        <ele>284.77</ele>
        <time>2015-05-26T08:08:27Z</time>
      </trkpt>
      <trkpt lat="44.72061" lon="5.07397">
        <ele>285.59</ele>
        <time>2015-05-26T08:08:38Z</time>
      </trkpt>
      <trkpt lat="44.72066" lon="5.07412">
        <ele>286.37</ele>
        <time>2015-05-26T08:08:49Z</time>
      </trkpt>
      <trkpt lat="44.72069" lon="5.07423">
        <ele>287.89</ele>
        <time>2015-05-26T08:08:59Z</time>
      </trkpt>
      <trkpt lat="44.72068" lon="5.07435">
        <ele>289.04</ele>
        <time>2015-05-26T08:09:09Z</time>
      </trkpt>
      <trkpt lat="44.72068" lon="5.07448">
        <ele>290.77</ele>
        <time>2015-05-26T08:09:19Z</time>
      </trkpt>
      <trkpt lat="44.72064" lon="5.07462">
        <ele>292.03</ele>
        <time>2015-05-26T08:09:35Z</time>
      </trkpt>
      <trkpt lat="44.72065" lon="5.07469">
        <ele>292.8</ele>
        <time>2015-05-26T08:10:06Z</time>
      </trkpt>
      <trkpt lat="44.72067" lon="5.07484">
        <ele>292.89</ele>
        <time>2015-05-26T08:10:18Z</time>
      </trkpt>
      <trkpt lat="44.72068" lon="5.07504">
        <ele>293</ele>
        <time>2015-05-26T08:10:28Z</time>
      </trkpt>
      <trkpt lat="44.72067" lon="5.07521">
        <ele>293</ele>
        <time>2015-05-26T08:10:40Z</time>
      </trkpt>
      <trkpt lat="44.72069" lon="5.07538">
        <ele>293.19</ele>
        <time>2015-05-26T08:10:57Z</time>
      </trkpt>
      <trkpt lat="44.72069" lon="5.07546">
        <ele>293.7</ele>
        <time>2015-05-26T08:11:20Z</time>
      </trkpt>
      <trkpt lat="44.72069" lon="5.07562">
        <ele>293.8</ele>
        <time>2015-05-26T08:11:31Z</time>
      </trkpt>
      <trkpt lat="44.72069" lon="5.07578">
        <ele>294.17</ele>
        <time>2015-05-26T08:11:41Z</time>
      </trkpt>
      <trkpt lat="44.72069" lon="5.07592">
        <ele>294.6</ele>
        <time>2015-05-26T08:11:51Z</time>
      </trkpt>
      <trkpt lat="44.72073" lon="5.07639">
        <ele>295.57</ele>
        <time>2015-05-26T08:12:21Z</time>
      </trkpt>
      <trkpt lat="44.72085" lon="5.07675">
        <ele>297.36</ele>
        <time>2015-05-26T08:12:48Z</time>
      </trkpt>
      <trkpt lat="44.72087" lon="5.07696">
        <ele>296.76</ele>
        <time>2015-05-26T08:13:14Z</time>
      </trkpt>
      <trkpt lat="44.72091" lon="5.07701">
        <ele>296.01</ele>
        <time>2015-05-26T08:13:45Z</time>
      </trkpt>
      <trkpt lat="44.72097" lon="5.07715">
        <ele>296.85</ele>
        <time>2015-05-26T08:13:55Z</time>
      </trkpt>
      <trkpt lat="44.72102" lon="5.07731">
        <ele>297.44</ele>
        <time>2015-05-26T08:14:07Z</time>
      </trkpt>
      <trkpt lat="44.72111" lon="5.07747">
        <ele>298.97</ele>
        <time>2015-05-26T08:14:20Z</time>
      </trkpt>
      <trkpt lat="44.72116" lon="5.07765">
        <ele>300.28</ele>
        <time>2015-05-26T08:14:31Z</time>
      </trkpt>
      <trkpt lat="44.72124" lon="5.07777">
        <ele>301.34</ele>
        <time>2015-05-26T08:14:41Z</time>
      </trkpt>
      <trkpt lat="44.72134" lon="5.0778">
        <ele>302.52</ele>
        <time>2015-05-26T08:14:51Z</time>
      </trkpt>
      <trkpt lat="44.72136" lon="5.07793">
        <ele>304.16</ele>
        <time>2015-05-26T08:15:20Z</time>
      </trkpt>
      <trkpt lat="44.72146" lon="5.0781">
        <ele>305.58</ele>
        <time>2015-05-26T08:15:36Z</time>
      </trkpt>
      <trkpt lat="44.72152" lon="5.07815">
        <ele>305.9</ele>
        <time>2015-05-26T08:15:46Z</time>
      </trkpt>
      <trkpt lat="44.7216" lon="5.07832">
        <ele>306.59</ele>
        <time>2015-05-26T08:15:58Z</time>
      </trkpt>
      <trkpt lat="44.72183" lon="5.07855">
        <ele>311.91</ele>
        <time>2015-05-26T08:16:41Z</time>
      </trkpt>
      <trkpt lat="44.72203" lon="5.07885">
        <ele>315.81</ele>
        <time>2015-05-26T08:17:28Z</time>
      </trkpt>
      <trkpt lat="44.72208" lon="5.0791">
        <ele>316.57</ele>
        <time>2015-05-26T08:17:44Z</time>
      </trkpt>
      <trkpt lat="44.72277" lon="5.07963">
        <ele>325.25</ele>
        <time>2015-05-26T08:18:54Z</time>
      </trkpt>
      <trkpt lat="44.72286" lon="5.07985">
        <ele>326.02</ele>
        <time>2015-05-26T08:19:08Z</time>
      </trkpt>
      <trkpt lat="44.72296" lon="5.08018">
        <ele>328.77</ele>
        <time>2015-05-26T08:19:25Z</time>
      </trkpt>
      <trkpt lat="44.72307" lon="5.08042">
        <ele>330.56</ele>
        <time>2015-05-26T08:19:40Z</time>
      </trkpt>
      <trkpt lat="44.72313" lon="5.08055">
        <ele>331.64</ele>
        <time>2015-05-26T08:19:50Z</time>
      </trkpt>
      <trkpt lat="44.72318" lon="5.08075">
        <ele>333.63</ele>
        <time>2015-05-26T08:20:05Z</time>
      </trkpt>
      <trkpt lat="44.72333" lon="5.08097">
        <ele>336.16</ele>
        <time>2015-05-26T08:20:19Z</time>
      </trkpt>
      <trkpt lat="44.72341" lon="5.08106">
        <ele>337.26</ele>
        <time>2015-05-26T08:20:29Z</time>
      </trkpt>
      <trkpt lat="44.72352" lon="5.08119">
        <ele>339.43</ele>
        <time>2015-05-26T08:20:42Z</time>
      </trkpt>
      <trkpt lat="44.72372" lon="5.08135">
        <ele>343.04</ele>
        <time>2015-05-26T08:21:02Z</time>
      </trkpt>
      <trkpt lat="44.72379" lon="5.08152">
        <ele>345.33</ele>
        <time>2015-05-26T08:21:16Z</time>
      </trkpt>
      <trkpt lat="44.72385" lon="5.08161">
        <ele>347.14</ele>
        <time>2015-05-26T08:21:26Z</time>
      </trkpt>
      <trkpt lat="44.72394" lon="5.08166">
        <ele>348.66</ele>
        <time>2015-05-26T08:21:36Z</time>
      </trkpt>
      <trkpt lat="44.72458" lon="5.08208">
        <ele>362.1</ele>
        <time>2015-05-26T08:22:48Z</time>
      </trkpt>
      <trkpt lat="44.7248" lon="5.0822">
        <ele>364.15</ele>
        <time>2015-05-26T08:23:08Z</time>
      </trkpt>
      <trkpt lat="44.7249" lon="5.0823">
        <ele>364.94</ele>
        <time>2015-05-26T08:23:20Z</time>
      </trkpt>
      <trkpt lat="44.72543" lon="5.08257">
        <ele>369.36</ele>
        <time>2015-05-26T08:24:24Z</time>
      </trkpt>
      <trkpt lat="44.72632" lon="5.08286">
        <ele>367.79</ele>
        <time>2015-05-26T08:26:06Z</time>
      </trkpt>
      <trkpt lat="44.72646" lon="5.08286">
        <ele>368.67</ele>
        <time>2015-05-26T08:26:24Z</time>
      </trkpt>
      <trkpt lat="44.72669" lon="5.08289">
        <ele>371.52</ele>
        <time>2015-05-26T08:26:46Z</time>
      </trkpt>
      <trkpt lat="44.72687" lon="5.083">
        <ele>375.03</ele>
        <time>2015-05-26T08:27:11Z</time>
      </trkpt>
      <trkpt lat="44.72695" lon="5.08306">
        <ele>376.02</ele>
        <time>2015-05-26T08:27:21Z</time>
      </trkpt>
      <trkpt lat="44.72708" lon="5.08312">
        <ele>376.85</ele>
        <time>2015-05-26T08:27:34Z</time>
      </trkpt>
      <trkpt lat="44.72758" lon="5.08319">
        <ele>380.78</ele>
        <time>2015-05-26T08:28:31Z</time>
      </trkpt>
      <trkpt lat="44.72761" lon="5.08316">
        <ele>382.32</ele>
        <time>2015-05-26T08:28:50Z</time>
      </trkpt>
      <trkpt lat="44.72759" lon="5.08323">
        <ele>384.5</ele>
        <time>2015-05-26T08:32:58Z</time>
      </trkpt>
      <trkpt lat="44.72771" lon="5.08323">
        <ele>386.1</ele>
        <time>2015-05-26T08:42:11Z</time>
      </trkpt>
      <trkpt lat="44.72779" lon="5.08331">
        <ele>386.2</ele>
        <time>2015-05-26T08:42:22Z</time>
      </trkpt>
      <trkpt lat="44.72786" lon="5.08341">
        <ele>386.49</ele>
        <time>2015-05-26T08:42:35Z</time>
      </trkpt>
      <trkpt lat="44.72796" lon="5.08353">
        <ele>386.48</ele>
        <time>2015-05-26T08:42:53Z</time>
      </trkpt>
      <trkpt lat="44.72802" lon="5.08375">
        <ele>386.4</ele>
        <time>2015-05-26T08:43:12Z</time>
      </trkpt>
      <trkpt lat="44.72835" lon="5.08401">
        <ele>387.99</ele>
        <time>2015-05-26T08:43:57Z</time>
      </trkpt>
      <trkpt lat="44.72843" lon="5.08425">
        <ele>388.97</ele>
        <time>2015-05-26T08:44:18Z</time>
      </trkpt>
      <trkpt lat="44.72853" lon="5.08429">
        <ele>390.87</ele>
        <time>2015-05-26T08:44:39Z</time>
      </trkpt>
      <trkpt lat="44.72851" lon="5.08455">
        <ele>392.69</ele>
        <time>2015-05-26T08:45:10Z</time>
      </trkpt>
      <trkpt lat="44.72854" lon="5.08467">
        <ele>393.5</ele>
        <time>2015-05-26T08:45:26Z</time>
      </trkpt>
      <trkpt lat="44.72854" lon="5.08477">
        <ele>393.87</ele>
        <time>2015-05-26T08:45:37Z</time>
      </trkpt>
      <trkpt lat="44.72911" lon="5.0854">
        <ele>397.37</ele>
        <time>2015-05-26T08:47:47Z</time>
      </trkpt>
      <trkpt lat="44.72942" lon="5.08563">
        <ele>402.93</ele>
        <time>2015-05-26T08:48:59Z</time>
      </trkpt>
      <trkpt lat="44.7312" lon="5.08657">
        <ele>422.12</ele>
        <time>2015-05-26T08:53:54Z</time>
      </trkpt>
      <trkpt lat="44.73147" lon="5.08666">
        <ele>421.63</ele>
        <time>2015-05-26T08:54:56Z</time>
      </trkpt>
      <trkpt lat="44.73153" lon="5.08658">
        <ele>424.3</ele>
        <time>2015-05-26T08:55:06Z</time>
      </trkpt>
      <trkpt lat="44.73158" lon="5.0865">
        <ele>426.85</ele>
        <time>2015-05-26T08:55:16Z</time>
      </trkpt>
      <trkpt lat="44.73203" lon="5.08638">
        <ele>433.47</ele>
        <time>2015-05-26T08:56:46Z</time>
      </trkpt>
      <trkpt lat="44.73229" lon="5.08637">
        <ele>436.65</ele>
        <time>2015-05-26T08:57:09Z</time>
      </trkpt>
      <trkpt lat="44.73238" lon="5.08645">
        <ele>437.37</ele>
        <time>2015-05-26T08:57:19Z</time>
      </trkpt>
      <trkpt lat="44.7329" lon="5.08664">
        <ele>443.87</ele>
        <time>2015-05-26T08:58:24Z</time>
      </trkpt>
      <trkpt lat="44.73305" lon="5.08667">
        <ele>444.5</ele>
        <time>2015-05-26T08:58:45Z</time>
      </trkpt>
      <trkpt lat="44.73317" lon="5.08671">
        <ele>445.8</ele>
        <time>2015-05-26T08:58:59Z</time>
      </trkpt>
      <trkpt lat="44.73327" lon="5.08674">
        <ele>445.6</ele>
        <time>2015-05-26T08:59:11Z</time>
      </trkpt>
      <trkpt lat="44.73389" lon="5.08689">
        <ele>450.19</ele>
        <time>2015-05-26T09:00:20Z</time>
      </trkpt>
      <trkpt lat="44.73447" lon="5.08691">
        <ele>453.47</ele>
        <time>2015-05-26T09:02:02Z</time>
      </trkpt>
      <trkpt lat="44.73656" lon="5.08701">
        <ele>448.23</ele>
        <time>2015-05-26T09:06:37Z</time>
      </trkpt>
      <trkpt lat="44.73719" lon="5.08704">
        <ele>441.36</ele>
        <time>2015-05-26T09:07:41Z</time>
      </trkpt>
      <trkpt lat="44.73781" lon="5.08696">
        <ele>434.08</ele>
        <time>2015-05-26T09:09:06Z</time>
      </trkpt>
      <trkpt lat="44.73792" lon="5.08696">
        <ele>434.42</ele>
        <time>2015-05-26T09:09:16Z</time>
      </trkpt>
      <trkpt lat="44.73809" lon="5.087">
        <ele>436.4</ele>
        <time>2015-05-26T09:09:47Z</time>
      </trkpt>
      <trkpt lat="44.73835" lon="5.087">
        <ele>440.86</ele>
        <time>2015-05-26T09:10:26Z</time>
      </trkpt>
      <trkpt lat="44.73861" lon="5.08694">
        <ele>441.27</ele>
        <time>2015-05-26T09:11:08Z</time>
      </trkpt>
      <trkpt lat="44.73901" lon="5.08682">
        <ele>440.7</ele>
        <time>2015-05-26T09:11:54Z</time>
      </trkpt>
      <trkpt lat="44.73936" lon="5.08672">
        <ele>442.6</ele>
        <time>2015-05-26T09:12:36Z</time>
      </trkpt>
      <trkpt lat="44.73945" lon="5.08669">
        <ele>444.45</ele>
        <time>2015-05-26T09:12:47Z</time>
      </trkpt>
      <trkpt lat="44.73956" lon="5.08663">
        <ele>445.55</ele>
        <time>2015-05-26T09:12:58Z</time>
      </trkpt>
      <trkpt lat="44.73962" lon="5.08661">
        <ele>446.44</ele>
        <time>2015-05-26T09:13:08Z</time>
      </trkpt>
      <trkpt lat="44.73973" lon="5.08658">
        <ele>447.69</ele>
        <time>2015-05-26T09:13:22Z</time>
      </trkpt>
      <trkpt lat="44.73983" lon="5.08655">
        <ele>448.22</ele>
        <time>2015-05-26T09:13:37Z</time>
      </trkpt>
      <trkpt lat="44.74028" lon="5.0862">
        <ele>452.07</ele>
        <time>2015-05-26T09:15:04Z</time>
      </trkpt>
      <trkpt lat="44.74035" lon="5.0861">
        <ele>453.09</ele>
        <time>2015-05-26T09:15:18Z</time>
      </trkpt>
      <trkpt lat="44.74088" lon="5.08623">
        <ele>459.07</ele>
        <time>2015-05-26T09:16:22Z</time>
      </trkpt>
      <trkpt lat="44.74125" lon="5.08621">
        <ele>461.88</ele>
        <time>2015-05-26T09:17:02Z</time>
      </trkpt>
      <trkpt lat="44.74158" lon="5.08615">
        <ele>459.6</ele>
        <time>2015-05-26T09:17:42Z</time>
      </trkpt>
      <trkpt lat="44.74227" lon="5.08565">
        <ele>465.59</ele>
        <time>2015-05-26T09:19:28Z</time>
      </trkpt>
      <trkpt lat="44.7424" lon="5.08557">
        <ele>468.04</ele>
        <time>2015-05-26T09:19:43Z</time>
      </trkpt>
      <trkpt lat="44.74309" lon="5.08514">
        <ele>466.53</ele>
        <time>2015-05-26T09:21:15Z</time>
      </trkpt>
      <trkpt lat="44.74326" lon="5.08511">
        <ele>467.07</ele>
        <time>2015-05-26T09:21:35Z</time>
      </trkpt>
      <trkpt lat="44.74343" lon="5.08502">
        <ele>468.47</ele>
        <time>2015-05-26T09:22:09Z</time>
      </trkpt>
      <trkpt lat="44.74354" lon="5.08497">
        <ele>468.76</ele>
        <time>2015-05-26T09:22:21Z</time>
      </trkpt>
      <trkpt lat="44.74364" lon="5.08487">
        <ele>469.78</ele>
        <time>2015-05-26T09:22:41Z</time>
      </trkpt>
      <trkpt lat="44.74384" lon="5.08469">
        <ele>472.47</ele>
        <time>2015-05-26T09:23:34Z</time>
      </trkpt>
      <trkpt lat="44.74391" lon="5.08466">
        <ele>475.41</ele>
        <time>2015-05-26T09:23:50Z</time>
      </trkpt>
      <trkpt lat="44.74396" lon="5.08467">
        <ele>479.5</ele>
        <time>2015-05-26T09:27:26Z</time>
      </trkpt>
      <trkpt lat="44.744" lon="5.08462">
        <ele>480.07</ele>
        <time>2015-05-26T09:27:36Z</time>
      </trkpt>
      <trkpt lat="44.74407" lon="5.08448">
        <ele>480.3</ele>
        <time>2015-05-26T09:27:46Z</time>
      </trkpt>
      <trkpt lat="44.7441" lon="5.08441">
        <ele>480.3</ele>
        <time>2015-05-26T09:28:00Z</time>
      </trkpt>
      <trkpt lat="44.74412" lon="5.08434">
        <ele>480.3</ele>
        <time>2015-05-26T09:28:14Z</time>
      </trkpt>
      <trkpt lat="44.74416" lon="5.08425">
        <ele>480.52</ele>
        <time>2015-05-26T09:28:25Z</time>
      </trkpt>
      <trkpt lat="44.74424" lon="5.0842">
        <ele>479.9</ele>
        <time>2015-05-26T09:28:42Z</time>
      </trkpt>
      <trkpt lat="44.74438" lon="5.0841">
        <ele>479.7</ele>
        <time>2015-05-26T09:28:53Z</time>
      </trkpt>
      <trkpt lat="44.74448" lon="5.08399">
        <ele>479.5</ele>
        <time>2015-05-26T09:29:05Z</time>
      </trkpt>
      <trkpt lat="44.7446" lon="5.08394">
        <ele>478.93</ele>
        <time>2015-05-26T09:29:16Z</time>
      </trkpt>
      <trkpt lat="44.74476" lon="5.08383">
        <ele>477.58</ele>
        <time>2015-05-26T09:29:27Z</time>
      </trkpt>
      <trkpt lat="44.7449" lon="5.08381">
        <ele>475.49</ele>
        <time>2015-05-26T09:29:37Z</time>
      </trkpt>
      <trkpt lat="44.74498" lon="5.08377">
        <ele>473.06</ele>
        <time>2015-05-26T09:29:47Z</time>
      </trkpt>
      <trkpt lat="44.74502" lon="5.08372">
        <ele>471.29</ele>
        <time>2015-05-26T09:30:00Z</time>
      </trkpt>
      <trkpt lat="44.74512" lon="5.08368">
        <ele>468.55</ele>
        <time>2015-05-26T09:30:10Z</time>
      </trkpt>
      <trkpt lat="44.74523" lon="5.0836">
        <ele>466.67</ele>
        <time>2015-05-26T09:30:20Z</time>
      </trkpt>
      <trkpt lat="44.74531" lon="5.08348">
        <ele>464.57</ele>
        <time>2015-05-26T09:30:30Z</time>
      </trkpt>
      <trkpt lat="44.74542" lon="5.08339">
        <ele>461.77</ele>
        <time>2015-05-26T09:30:41Z</time>
      </trkpt>
      <trkpt lat="44.74554" lon="5.0833">
        <ele>460.26</ele>
        <time>2015-05-26T09:30:54Z</time>
      </trkpt>
      <trkpt lat="44.74569" lon="5.0832">
        <ele>458.86</ele>
        <time>2015-05-26T09:31:07Z</time>
      </trkpt>
      <trkpt lat="44.74578" lon="5.08315">
        <ele>457.64</ele>
        <time>2015-05-26T09:31:17Z</time>
      </trkpt>
      <trkpt lat="44.74592" lon="5.08312">
        <ele>455.95</ele>
        <time>2015-05-26T09:31:33Z</time>
      </trkpt>
      <trkpt lat="44.74601" lon="5.08303">
        <ele>454.83</ele>
        <time>2015-05-26T09:31:44Z</time>
      </trkpt>
      <trkpt lat="44.74616" lon="5.08295">
        <ele>453.13</ele>
        <time>2015-05-26T09:31:58Z</time>
      </trkpt>
      <trkpt lat="44.74632" lon="5.08291">
        <ele>451.53</ele>
        <time>2015-05-26T09:32:16Z</time>
      </trkpt>
      <trkpt lat="44.74645" lon="5.08291">
        <ele>450.37</ele>
        <time>2015-05-26T09:32:26Z</time>
      </trkpt>
      <trkpt lat="44.74656" lon="5.08288">
        <ele>448.73</ele>
        <time>2015-05-26T09:32:40Z</time>
      </trkpt>
      <trkpt lat="44.74666" lon="5.08285">
        <ele>448.31</ele>
        <time>2015-05-26T09:32:51Z</time>
      </trkpt>
      <trkpt lat="44.74709" lon="5.08273">
        <ele>446.73</ele>
        <time>2015-05-26T09:33:34Z</time>
      </trkpt>
      <trkpt lat="44.7472" lon="5.08274">
        <ele>446.5</ele>
        <time>2015-05-26T09:33:47Z</time>
      </trkpt>
      <trkpt lat="44.74735" lon="5.08271">
        <ele>446.53</ele>
        <time>2015-05-26T09:34:00Z</time>
      </trkpt>
      <trkpt lat="44.74746" lon="5.08269">
        <ele>446.75</ele>
        <time>2015-05-26T09:34:12Z</time>
      </trkpt>
      <trkpt lat="44.74761" lon="5.08272">
        <ele>447.97</ele>
        <time>2015-05-26T09:34:23Z</time>
      </trkpt>
      <trkpt lat="44.74773" lon="5.08276">
        <ele>447.83</ele>
        <time>2015-05-26T09:34:33Z</time>
      </trkpt>
      <trkpt lat="44.74783" lon="5.08281">
        <ele>449.02</ele>
        <time>2015-05-26T09:34:43Z</time>
      </trkpt>
      <trkpt lat="44.74793" lon="5.08284">
        <ele>449.23</ele>
        <time>2015-05-26T09:34:53Z</time>
      </trkpt>
      <trkpt lat="44.74803" lon="5.08287">
        <ele>450.1</ele>
        <time>2015-05-26T09:35:03Z</time>
      </trkpt>
      <trkpt lat="44.74813" lon="5.08293">
        <ele>450.1</ele>
        <time>2015-05-26T09:35:14Z</time>
      </trkpt>
      <trkpt lat="44.74826" lon="5.08298">
        <ele>450.37</ele>
        <time>2015-05-26T09:35:30Z</time>
      </trkpt>
      <trkpt lat="44.7486" lon="5.08306">
        <ele>448.62</ele>
        <time>2015-05-26T09:36:01Z</time>
      </trkpt>
      <trkpt lat="44.74878" lon="5.0831">
        <ele>448.92</ele>
        <time>2015-05-26T09:36:19Z</time>
      </trkpt>
      <trkpt lat="44.749" lon="5.08314">
        <ele>449.76</ele>
        <time>2015-05-26T09:36:40Z</time>
      </trkpt>
      <trkpt lat="44.74908" lon="5.08318">
        <ele>450.44</ele>
        <time>2015-05-26T09:36:51Z</time>
      </trkpt>
      <trkpt lat="44.74962" lon="5.08335">
        <ele>452.43</ele>
        <time>2015-05-26T09:37:44Z</time>
      </trkpt>
      <trkpt lat="44.74977" lon="5.08342">
        <ele>451.19</ele>
        <time>2015-05-26T09:38:01Z</time>
      </trkpt>
      <trkpt lat="44.74985" lon="5.08342">
        <ele>449.09</ele>
        <time>2015-05-26T09:38:11Z</time>
      </trkpt>
      <trkpt lat="44.74994" lon="5.08346">
        <ele>446.86</ele>
        <time>2015-05-26T09:38:21Z</time>
      </trkpt>
      <trkpt lat="44.75005" lon="5.08357">
        <ele>443.7</ele>
        <time>2015-05-26T09:38:31Z</time>
      </trkpt>
      <trkpt lat="44.75012" lon="5.08365">
        <ele>441.83</ele>
        <time>2015-05-26T09:38:41Z</time>
      </trkpt>
      <trkpt lat="44.7505" lon="5.08425">
        <ele>436.3</ele>
        <time>2015-05-26T09:39:45Z</time>
      </trkpt>
      <trkpt lat="44.75057" lon="5.08454">
        <ele>435.3</ele>
        <time>2015-05-26T09:40:16Z</time>
      </trkpt>
      <trkpt lat="44.75059" lon="5.08473">
        <ele>435.11</ele>
        <time>2015-05-26T09:40:34Z</time>
      </trkpt>
      <trkpt lat="44.75073" lon="5.08482">
        <ele>435.46</ele>
        <time>2015-05-26T09:41:06Z</time>
      </trkpt>
      <trkpt lat="44.75109" lon="5.08513">
        <ele>441.69</ele>
        <time>2015-05-26T09:42:38Z</time>
      </trkpt>
      <trkpt lat="44.75127" lon="5.08553">
        <ele>448.37</ele>
        <time>2015-05-26T09:43:46Z</time>
      </trkpt>
      <trkpt lat="44.75127" lon="5.08567">
        <ele>449.57</ele>
        <time>2015-05-26T09:43:56Z</time>
      </trkpt>
      <trkpt lat="44.75127" lon="5.08592">
        <ele>452.07</ele>
        <time>2015-05-26T09:44:23Z</time>
      </trkpt>
      <trkpt lat="44.75125" lon="5.0861">
        <ele>453.54</ele>
        <time>2015-05-26T09:44:36Z</time>
      </trkpt>
      <trkpt lat="44.7512" lon="5.08646">
        <ele>455.55</ele>
        <time>2015-05-26T09:45:01Z</time>
      </trkpt>
      <trkpt lat="44.75119" lon="5.08669">
        <ele>456.55</ele>
        <time>2015-05-26T09:45:16Z</time>
      </trkpt>
      <trkpt lat="44.75123" lon="5.08675">
        <ele>457.17</ele>
        <time>2015-05-26T09:45:26Z</time>
      </trkpt>
      <trkpt lat="44.75525" lon="5.0874">
        <ele>432.91</ele>
        <time>2015-05-26T09:53:31Z</time>
      </trkpt>
      <trkpt lat="44.75602" lon="5.08759">
        <ele>419.23</ele>
        <time>2015-05-26T09:55:13Z</time>
      </trkpt>
      <trkpt lat="44.75673" lon="5.08843">
        <ele>405.73</ele>
        <time>2015-05-26T09:57:16Z</time>
      </trkpt>
      <trkpt lat="44.75725" lon="5.08831">
        <ele>399.64</ele>
        <time>2015-05-26T09:58:20Z</time>
      </trkpt>
      <trkpt lat="44.75795" lon="5.08828">
        <ele>398.88</ele>
        <time>2015-05-26T09:59:33Z</time>
      </trkpt>
      <trkpt lat="44.75938" lon="5.08855">
        <ele>394.13</ele>
        <time>2015-05-26T10:02:10Z</time>
      </trkpt>
      <trkpt lat="44.75954" lon="5.08853">
        <ele>392.76</ele>
        <time>2015-05-26T10:02:25Z</time>
      </trkpt>
      <trkpt lat="44.75965" lon="5.08845">
        <ele>389.97</ele>
        <time>2015-05-26T10:02:37Z</time>
      </trkpt>
      <trkpt lat="44.75977" lon="5.08835">
        <ele>387.91</ele>
        <time>2015-05-26T10:02:51Z</time>
      </trkpt>
      <trkpt lat="44.75998" lon="5.08816">
        <ele>385.17</ele>
        <time>2015-05-26T10:03:16Z</time>
      </trkpt>
      <trkpt lat="44.76006" lon="5.08807">
        <ele>382.68</ele>
        <time>2015-05-26T10:03:52Z</time>
      </trkpt>
      <trkpt lat="44.76017" lon="5.08807">
        <ele>382.81</ele>
        <time>2015-05-26T10:04:02Z</time>
      </trkpt>
      <trkpt lat="44.76026" lon="5.08802">
        <ele>383.06</ele>
        <time>2015-05-26T10:04:14Z</time>
      </trkpt>
      <trkpt lat="44.76033" lon="5.08796">
        <ele>381.38</ele>
        <time>2015-05-26T10:04:24Z</time>
      </trkpt>
      <trkpt lat="44.76039" lon="5.08787">
        <ele>381.5</ele>
        <time>2015-05-26T10:04:34Z</time>
      </trkpt>
      <trkpt lat="44.76049" lon="5.08782">
        <ele>380.24</ele>
        <time>2015-05-26T10:04:46Z</time>
      </trkpt>
      <trkpt lat="44.76056" lon="5.08776">
        <ele>379.54</ele>
        <time>2015-05-26T10:04:56Z</time>
      </trkpt>
      <trkpt lat="44.76065" lon="5.08773">
        <ele>378.91</ele>
        <time>2015-05-26T10:05:07Z</time>
      </trkpt>
      <trkpt lat="44.76073" lon="5.08759">
        <ele>378.23</ele>
        <time>2015-05-26T10:05:17Z</time>
      </trkpt>
      <trkpt lat="44.76078" lon="5.08749">
        <ele>377.33</ele>
        <time>2015-05-26T10:05:27Z</time>
      </trkpt>
      <trkpt lat="44.76084" lon="5.08739">
        <ele>376.71</ele>
        <time>2015-05-26T10:05:37Z</time>
      </trkpt>
      <trkpt lat="44.76089" lon="5.08728">
        <ele>375.63</ele>
        <time>2015-05-26T10:05:47Z</time>
      </trkpt>
      <trkpt lat="44.76097" lon="5.08717">
        <ele>374.83</ele>
        <time>2015-05-26T10:05:57Z</time>
      </trkpt>
      <trkpt lat="44.76102" lon="5.08704">
        <ele>373.83</ele>
        <time>2015-05-26T10:06:08Z</time>
      </trkpt>
      <trkpt lat="44.76106" lon="5.08693">
        <ele>373.13</ele>
        <time>2015-05-26T10:06:19Z</time>
      </trkpt>
      <trkpt lat="44.76109" lon="5.0868">
        <ele>372.43</ele>
        <time>2015-05-26T10:06:32Z</time>
      </trkpt>
      <trkpt lat="44.76133" lon="5.08488">
        <ele>376.28</ele>
        <time>2015-05-26T11:00:09Z</time>
      </trkpt>
      <trkpt lat="44.7617" lon="5.08358">
        <ele>378.2</ele>
        <time>2015-05-26T11:04:46Z</time>
      </trkpt>
      <trkpt lat="44.76168" lon="5.08366">
        <ele>379.9</ele>
        <time>2015-05-26T11:06:38Z</time>
      </trkpt>
      <trkpt lat="44.76162" lon="5.08375">
        <ele>380.39</ele>
        <time>2015-05-26T11:06:50Z</time>
      </trkpt>
      <trkpt lat="44.76158" lon="5.08394">
        <ele>380.6</ele>
        <time>2015-05-26T11:07:06Z</time>
      </trkpt>
      <trkpt lat="44.76155" lon="5.08415">
        <ele>380.43</ele>
        <time>2015-05-26T11:07:21Z</time>
      </trkpt>
      <trkpt lat="44.76138" lon="5.08402">
        <ele>378.47</ele>
        <time>2015-05-26T11:08:16Z</time>
      </trkpt>
      <trkpt lat="44.76132" lon="5.08396">
        <ele>377.57</ele>
        <time>2015-05-26T11:08:27Z</time>
      </trkpt>
      <trkpt lat="44.7613" lon="5.08389">
        <ele>376.28</ele>
        <time>2015-05-26T11:08:37Z</time>
      </trkpt>
      <trkpt lat="44.76128" lon="5.0838">
        <ele>374.2</ele>
        <time>2015-05-26T11:08:47Z</time>
      </trkpt>
      <trkpt lat="44.76123" lon="5.08374">
        <ele>373.26</ele>
        <time>2015-05-26T11:09:01Z</time>
      </trkpt>
      <trkpt lat="44.76118" lon="5.08367">
        <ele>372.43</ele>
        <time>2015-05-26T11:09:13Z</time>
      </trkpt>
      <trkpt lat="44.76112" lon="5.08361">
        <ele>371.91</ele>
        <time>2015-05-26T11:09:24Z</time>
      </trkpt>
      <trkpt lat="44.76105" lon="5.08356">
        <ele>370.61</ele>
        <time>2015-05-26T11:09:34Z</time>
      </trkpt>
      <trkpt lat="44.76099" lon="5.08349">
        <ele>369.53</ele>
        <time>2015-05-26T11:09:44Z</time>
      </trkpt>
      <trkpt lat="44.76098" lon="5.08341">
        <ele>368.27</ele>
        <time>2015-05-26T11:09:54Z</time>
      </trkpt>
      <trkpt lat="44.76097" lon="5.08331">
        <ele>367.06</ele>
        <time>2015-05-26T11:10:04Z</time>
      </trkpt>
      <trkpt lat="44.76101" lon="5.08318">
        <ele>365.46</ele>
        <time>2015-05-26T11:10:16Z</time>
      </trkpt>
      <trkpt lat="44.76102" lon="5.08309">
        <ele>364.46</ele>
        <time>2015-05-26T11:10:26Z</time>
      </trkpt>
      <trkpt lat="44.76096" lon="5.083">
        <ele>363.33</ele>
        <time>2015-05-26T11:10:37Z</time>
      </trkpt>
      <trkpt lat="44.76087" lon="5.08285">
        <ele>360.96</ele>
        <time>2015-05-26T11:10:59Z</time>
      </trkpt>
      <trkpt lat="44.76079" lon="5.08276">
        <ele>359.33</ele>
        <time>2015-05-26T11:11:15Z</time>
      </trkpt>
      <trkpt lat="44.76075" lon="5.08265">
        <ele>358.83</ele>
        <time>2015-05-26T11:11:25Z</time>
      </trkpt>
      <trkpt lat="44.76072" lon="5.08254">
        <ele>357.66</ele>
        <time>2015-05-26T11:11:35Z</time>
      </trkpt>
      <trkpt lat="44.76069" lon="5.08238">
        <ele>355.41</ele>
        <time>2015-05-26T11:11:57Z</time>
      </trkpt>
      <trkpt lat="44.76065" lon="5.08226">
        <ele>354.43</ele>
        <time>2015-05-26T11:12:07Z</time>
      </trkpt>
      <trkpt lat="44.76063" lon="5.08218">
        <ele>353.08</ele>
        <time>2015-05-26T11:12:18Z</time>
      </trkpt>
      <trkpt lat="44.76058" lon="5.08213">
        <ele>352.43</ele>
        <time>2015-05-26T11:12:28Z</time>
      </trkpt>
      <trkpt lat="44.76054" lon="5.08204">
        <ele>351.13</ele>
        <time>2015-05-26T11:12:38Z</time>
      </trkpt>
      <trkpt lat="44.76053" lon="5.08195">
        <ele>350.25</ele>
        <time>2015-05-26T11:12:50Z</time>
      </trkpt>
      <trkpt lat="44.76041" lon="5.08186">
        <ele>348.33</ele>
        <time>2015-05-26T11:13:05Z</time>
      </trkpt>
      <trkpt lat="44.76031" lon="5.08178">
        <ele>346.94</ele>
        <time>2015-05-26T11:13:15Z</time>
      </trkpt>
      <trkpt lat="44.76027" lon="5.08169">
        <ele>346.23</ele>
        <time>2015-05-26T11:13:25Z</time>
      </trkpt>
      <trkpt lat="44.76021" lon="5.08158">
        <ele>345.53</ele>
        <time>2015-05-26T11:13:36Z</time>
      </trkpt>
      <trkpt lat="44.76007" lon="5.08146">
        <ele>344.48</ele>
        <time>2015-05-26T11:13:52Z</time>
      </trkpt>
      <trkpt lat="44.75998" lon="5.08136">
        <ele>343.91</ele>
        <time>2015-05-26T11:14:02Z</time>
      </trkpt>
      <trkpt lat="44.75995" lon="5.08123">
        <ele>343.33</ele>
        <time>2015-05-26T11:14:12Z</time>
      </trkpt>
      <trkpt lat="44.75991" lon="5.08115">
        <ele>342.51</ele>
        <time>2015-05-26T11:14:22Z</time>
      </trkpt>
      <trkpt lat="44.75976" lon="5.081">
        <ele>340.23</ele>
        <time>2015-05-26T11:14:55Z</time>
      </trkpt>
      <trkpt lat="44.75968" lon="5.08096">
        <ele>339.9</ele>
        <time>2015-05-26T11:15:05Z</time>
      </trkpt>
      <trkpt lat="44.7596" lon="5.08092">
        <ele>338.83</ele>
        <time>2015-05-26T11:15:18Z</time>
      </trkpt>
      <trkpt lat="44.75952" lon="5.08089">
        <ele>337.59</ele>
        <time>2015-05-26T11:15:28Z</time>
      </trkpt>
      <trkpt lat="44.75945" lon="5.08088">
        <ele>336.43</ele>
        <time>2015-05-26T11:15:38Z</time>
      </trkpt>
      <trkpt lat="44.75935" lon="5.08082">
        <ele>335.63</ele>
        <time>2015-05-26T11:15:50Z</time>
      </trkpt>
      <trkpt lat="44.75926" lon="5.0808">
        <ele>334.53</ele>
        <time>2015-05-26T11:16:03Z</time>
      </trkpt>
      <trkpt lat="44.75907" lon="5.08075">
        <ele>331.23</ele>
        <time>2015-05-26T11:16:38Z</time>
      </trkpt>
      <trkpt lat="44.75895" lon="5.08069">
        <ele>329.26</ele>
        <time>2015-05-26T11:16:58Z</time>
      </trkpt>
      <trkpt lat="44.75917" lon="5.07965">
        <ele>324.1</ele>
        <time>2015-05-26T11:19:35Z</time>
      </trkpt>
      <trkpt lat="44.75923" lon="5.0795">
        <ele>324.19</ele>
        <time>2015-05-26T11:19:48Z</time>
      </trkpt>
      <trkpt lat="44.7592" lon="5.07936">
        <ele>324.37</ele>
        <time>2015-05-26T11:19:58Z</time>
      </trkpt>
      <trkpt lat="44.75912" lon="5.07931">
        <ele>324.21</ele>
        <time>2015-05-26T11:20:08Z</time>
      </trkpt>
      <trkpt lat="44.75904" lon="5.07927">
        <ele>323.71</ele>
        <time>2015-05-26T11:20:19Z</time>
      </trkpt>
      <trkpt lat="44.75896" lon="5.07917">
        <ele>323.2</ele>
        <time>2015-05-26T11:20:30Z</time>
      </trkpt>
      <trkpt lat="44.75886" lon="5.07912">
        <ele>322.83</ele>
        <time>2015-05-26T11:20:40Z</time>
      </trkpt>
      <trkpt lat="44.75878" lon="5.07905">
        <ele>322.33</ele>
        <time>2015-05-26T11:20:51Z</time>
      </trkpt>
      <trkpt lat="44.75866" lon="5.07896">
        <ele>321.66</ele>
        <time>2015-05-26T11:21:01Z</time>
      </trkpt>
      <trkpt lat="44.75858" lon="5.07885">
        <ele>320.53</ele>
        <time>2015-05-26T11:21:11Z</time>
      </trkpt>
      <trkpt lat="44.75847" lon="5.07876">
        <ele>319.31</ele>
        <time>2015-05-26T11:21:31Z</time>
      </trkpt>
      <trkpt lat="44.7586" lon="5.07878">
        <ele>317.86</ele>
        <time>2015-05-26T11:22:07Z</time>
      </trkpt>
      <trkpt lat="44.75873" lon="5.07872">
        <ele>315.33</ele>
        <time>2015-05-26T11:22:28Z</time>
      </trkpt>
      <trkpt lat="44.7589" lon="5.07869">
        <ele>313.78</ele>
        <time>2015-05-26T11:22:49Z</time>
      </trkpt>
      <trkpt lat="44.75902" lon="5.07873">
        <ele>312.31</ele>
        <time>2015-05-26T11:23:03Z</time>
      </trkpt>
      <trkpt lat="44.75938" lon="5.07887">
        <ele>307.06</ele>
        <time>2015-05-26T11:23:57Z</time>
      </trkpt>
      <trkpt lat="44.75956" lon="5.07887">
        <ele>305.49</ele>
        <time>2015-05-26T11:24:13Z</time>
      </trkpt>
      <trkpt lat="44.75965" lon="5.07871">
        <ele>304.17</ele>
        <time>2015-05-26T11:24:26Z</time>
      </trkpt>
      <trkpt lat="44.75968" lon="5.07852">
        <ele>303.9</ele>
        <time>2015-05-26T11:24:38Z</time>
      </trkpt>
      <trkpt lat="44.76009" lon="5.07857">
        <ele>302.58</ele>
        <time>2015-05-26T11:25:20Z</time>
      </trkpt>
      <trkpt lat="44.76024" lon="5.07865">
        <ele>302.83</ele>
        <time>2015-05-26T11:25:36Z</time>
      </trkpt>
      <trkpt lat="44.76058" lon="5.07807">
        <ele>300.06</ele>
        <time>2015-05-26T11:26:40Z</time>
      </trkpt>
      <trkpt lat="44.76069" lon="5.07787">
        <ele>301.34</ele>
        <time>2015-05-26T11:26:50Z</time>
      </trkpt>
      <trkpt lat="44.76078" lon="5.07777">
        <ele>302.01</ele>
        <time>2015-05-26T11:27:00Z</time>
      </trkpt>
      <trkpt lat="44.76082" lon="5.07763">
        <ele>302.2</ele>
        <time>2015-05-26T11:27:10Z</time>
      </trkpt>
      <trkpt lat="44.7608" lon="5.07749">
        <ele>302.19</ele>
        <time>2015-05-26T11:27:20Z</time>
      </trkpt>
      <trkpt lat="44.76062" lon="5.07722">
        <ele>301.61</ele>
        <time>2015-05-26T11:27:48Z</time>
      </trkpt>
      <trkpt lat="44.76055" lon="5.07708">
        <ele>300.73</ele>
        <time>2015-05-26T11:28:05Z</time>
      </trkpt>
      <trkpt lat="44.76051" lon="5.07699">
        <ele>300.41</ele>
        <time>2015-05-26T11:28:16Z</time>
      </trkpt>
      <trkpt lat="44.76056" lon="5.07686">
        <ele>301.87</ele>
        <time>2015-05-26T11:28:51Z</time>
      </trkpt>
      <trkpt lat="44.76058" lon="5.07695">
        <ele>301.61</ele>
        <time>2015-05-26T11:29:01Z</time>
      </trkpt>
      <trkpt lat="44.76065" lon="5.07706">
        <ele>301.79</ele>
        <time>2015-05-26T11:29:15Z</time>
      </trkpt>
      <trkpt lat="44.76074" lon="5.07707">
        <ele>304.07</ele>
        <time>2015-05-26T11:29:44Z</time>
      </trkpt>
      <trkpt lat="44.76066" lon="5.07693">
        <ele>307.53</ele>
        <time>2015-05-26T11:30:06Z</time>
      </trkpt>
      <trkpt lat="44.761" lon="5.07689">
        <ele>312.37</ele>
        <time>2015-05-26T11:31:31Z</time>
      </trkpt>
      <trkpt lat="44.76116" lon="5.07693">
        <ele>313.27</ele>
        <time>2015-05-26T11:31:51Z</time>
      </trkpt>
      <trkpt lat="44.76141" lon="5.07702">
        <ele>314.09</ele>
        <time>2015-05-26T11:32:17Z</time>
      </trkpt>
      <trkpt lat="44.76153" lon="5.07713">
        <ele>317.89</ele>
        <time>2015-05-26T11:32:32Z</time>
      </trkpt>
      <trkpt lat="44.76191" lon="5.07718">
        <ele>323.24</ele>
        <time>2015-05-26T11:33:15Z</time>
      </trkpt>
      <trkpt lat="44.762" lon="5.0772">
        <ele>324.62</ele>
        <time>2015-05-26T11:33:25Z</time>
      </trkpt>
      <trkpt lat="44.76266" lon="5.0774">
        <ele>335.4</ele>
        <time>2015-05-26T11:34:35Z</time>
      </trkpt>
      <trkpt lat="44.76282" lon="5.07737">
        <ele>339.66</ele>
        <time>2015-05-26T11:34:47Z</time>
      </trkpt>
      <trkpt lat="44.76326" lon="5.07736">
        <ele>355.63</ele>
        <time>2015-05-26T11:36:32Z</time>
      </trkpt>
      <trkpt lat="44.76336" lon="5.07753">
        <ele>364.87</ele>
        <time>2015-05-26T11:37:56Z</time>
      </trkpt>
      <trkpt lat="44.76326" lon="5.07748">
        <ele>364.77</ele>
        <time>2015-05-26T11:38:11Z</time>
      </trkpt>
      <trkpt lat="44.76447" lon="5.07733">
        <ele>370.82</ele>
        <time>2015-05-26T11:45:32Z</time>
      </trkpt>
      <trkpt lat="44.76457" lon="5.07746">
        <ele>372.2</ele>
        <time>2015-05-26T11:46:03Z</time>
      </trkpt>
      <trkpt lat="44.76459" lon="5.07782">
        <ele>382.31</ele>
        <time>2015-05-26T11:56:00Z</time>
      </trkpt>
      <trkpt lat="44.76461" lon="5.07777">
        <ele>382.11</ele>
        <time>2015-05-26T11:56:10Z</time>
      </trkpt>
      <trkpt lat="44.76457" lon="5.07768">
        <ele>382.46</ele>
        <time>2015-05-26T11:57:19Z</time>
      </trkpt>
      <trkpt lat="44.76454" lon="5.07763">
        <ele>381.91</ele>
        <time>2015-05-26T11:57:32Z</time>
      </trkpt>
      <trkpt lat="44.76451" lon="5.0775">
        <ele>381.61</ele>
        <time>2015-05-26T11:57:44Z</time>
      </trkpt>
      <trkpt lat="44.76449" lon="5.07739">
        <ele>381.31</ele>
        <time>2015-05-26T11:58:04Z</time>
      </trkpt>
      <trkpt lat="44.76347" lon="5.07801">
        <ele>376.55</ele>
        <time>2015-05-26T12:03:45Z</time>
      </trkpt>
      <trkpt lat="44.76338" lon="5.07784">
        <ele>369.48</ele>
        <time>2015-05-26T12:05:16Z</time>
      </trkpt>
      <trkpt lat="44.76319" lon="5.07774">
        <ele>368.81</ele>
        <time>2015-05-26T12:06:02Z</time>
      </trkpt>
      <trkpt lat="44.76309" lon="5.07758">
        <ele>366.83</ele>
        <time>2015-05-26T12:07:49Z</time>
      </trkpt>
      <trkpt lat="44.76298" lon="5.07749">
        <ele>366.06</ele>
        <time>2015-05-26T12:07:59Z</time>
      </trkpt>
      <trkpt lat="44.76276" lon="5.07752">
        <ele>365.25</ele>
        <time>2015-05-26T12:08:18Z</time>
      </trkpt>
      <trkpt lat="44.76257" lon="5.07748">
        <ele>364.9</ele>
        <time>2015-05-26T12:08:33Z</time>
      </trkpt>
      <trkpt lat="44.76244" lon="5.07746">
        <ele>363.96</ele>
        <time>2015-05-26T12:08:45Z</time>
      </trkpt>
      <trkpt lat="44.76233" lon="5.07745">
        <ele>361.49</ele>
        <time>2015-05-26T12:08:55Z</time>
      </trkpt>
      <trkpt lat="44.7621" lon="5.07742">
        <ele>357.3</ele>
        <time>2015-05-26T12:09:13Z</time>
      </trkpt>
      <trkpt lat="44.76199" lon="5.07742">
        <ele>354.31</ele>
        <time>2015-05-26T12:09:23Z</time>
      </trkpt>
      <trkpt lat="44.76183" lon="5.07741">
        <ele>349.23</ele>
        <time>2015-05-26T12:09:40Z</time>
      </trkpt>
      <trkpt lat="44.76151" lon="5.07733">
        <ele>339.2</ele>
        <time>2015-05-26T12:10:08Z</time>
      </trkpt>
      <trkpt lat="44.76069" lon="5.07691">
        <ele>313.32</ele>
        <time>2015-05-26T12:11:36Z</time>
      </trkpt>
      <trkpt lat="44.76078" lon="5.07712">
        <ele>309.25</ele>
        <time>2015-05-26T12:11:52Z</time>
      </trkpt>
      <trkpt lat="44.76023" lon="5.07595">
        <ele>298.3</ele>
        <time>2015-05-26T12:13:44Z</time>
      </trkpt>
      <trkpt lat="44.76015" lon="5.07573">
        <ele>299.56</ele>
        <time>2015-05-26T12:14:01Z</time>
      </trkpt>
      <trkpt lat="44.7601" lon="5.07558">
        <ele>299.69</ele>
        <time>2015-05-26T12:14:19Z</time>
      </trkpt>
      <trkpt lat="44.76001" lon="5.0755">
        <ele>300.67</ele>
        <time>2015-05-26T12:14:29Z</time>
      </trkpt>
      <trkpt lat="44.75994" lon="5.0754">
        <ele>302.07</ele>
        <time>2015-05-26T12:14:39Z</time>
      </trkpt>
      <trkpt lat="44.7598" lon="5.07532">
        <ele>303.37</ele>
        <time>2015-05-26T12:14:57Z</time>
      </trkpt>
      <trkpt lat="44.75954" lon="5.07522">
        <ele>304.88</ele>
        <time>2015-05-26T12:16:29Z</time>
      </trkpt>
      <trkpt lat="44.75922" lon="5.07529">
        <ele>304.8</ele>
        <time>2015-05-26T12:17:25Z</time>
      </trkpt>
      <trkpt lat="44.75913" lon="5.0753">
        <ele>304.29</ele>
        <time>2015-05-26T12:17:35Z</time>
      </trkpt>
      <trkpt lat="44.75904" lon="5.07532">
        <ele>304.79</ele>
        <time>2015-05-26T12:17:45Z</time>
      </trkpt>
      <trkpt lat="44.75894" lon="5.07534">
        <ele>304.53</ele>
        <time>2015-05-26T12:17:56Z</time>
      </trkpt>
      <trkpt lat="44.75885" lon="5.07532">
        <ele>303.88</ele>
        <time>2015-05-26T12:18:06Z</time>
      </trkpt>
      <trkpt lat="44.75851" lon="5.07544">
        <ele>303.1</ele>
        <time>2015-05-26T12:18:44Z</time>
      </trkpt>
      <trkpt lat="44.75835" lon="5.07546">
        <ele>302.8</ele>
        <time>2015-05-26T12:18:58Z</time>
      </trkpt>
      <trkpt lat="44.75821" lon="5.07543">
        <ele>302.31</ele>
        <time>2015-05-26T12:19:13Z</time>
      </trkpt>
      <trkpt lat="44.7581" lon="5.07543">
        <ele>301.83</ele>
        <time>2015-05-26T12:19:25Z</time>
      </trkpt>
      <trkpt lat="44.75788" lon="5.07538">
        <ele>300.9</ele>
        <time>2015-05-26T12:19:47Z</time>
      </trkpt>
      <trkpt lat="44.75778" lon="5.07535">
        <ele>300.6</ele>
        <time>2015-05-26T12:19:58Z</time>
      </trkpt>
      <trkpt lat="44.75689" lon="5.07472">
        <ele>298.01</ele>
        <time>2015-05-26T12:21:27Z</time>
      </trkpt>
      <trkpt lat="44.75671" lon="5.07455">
        <ele>297.58</ele>
        <time>2015-05-26T12:21:45Z</time>
      </trkpt>
      <trkpt lat="44.75652" lon="5.07434">
        <ele>297.41</ele>
        <time>2015-05-26T12:22:07Z</time>
      </trkpt>
      <trkpt lat="44.75617" lon="5.07419">
        <ele>297.5</ele>
        <time>2015-05-26T12:22:41Z</time>
      </trkpt>
      <trkpt lat="44.75586" lon="5.07395">
        <ele>297</ele>
        <time>2015-05-26T12:23:12Z</time>
      </trkpt>
      <trkpt lat="44.75574" lon="5.07382">
        <ele>296.87</ele>
        <time>2015-05-26T12:23:22Z</time>
      </trkpt>
      <trkpt lat="44.75565" lon="5.07369">
        <ele>296.9</ele>
        <time>2015-05-26T12:23:32Z</time>
      </trkpt>
      <trkpt lat="44.75556" lon="5.07362">
        <ele>296.3</ele>
        <time>2015-05-26T12:23:42Z</time>
      </trkpt>
      <trkpt lat="44.75551" lon="5.07352">
        <ele>295.98</ele>
        <time>2015-05-26T12:23:52Z</time>
      </trkpt>
      <trkpt lat="44.75538" lon="5.07342">
        <ele>295.34</ele>
        <time>2015-05-26T12:24:04Z</time>
      </trkpt>
      <trkpt lat="44.7553" lon="5.07332">
        <ele>294.18</ele>
        <time>2015-05-26T12:24:15Z</time>
      </trkpt>
      <trkpt lat="44.75524" lon="5.07323">
        <ele>294.57</ele>
        <time>2015-05-26T12:24:25Z</time>
      </trkpt>
      <trkpt lat="44.75516" lon="5.07309">
        <ele>294.68</ele>
        <time>2015-05-26T12:24:36Z</time>
      </trkpt>
      <trkpt lat="44.7551" lon="5.07301">
        <ele>295</ele>
        <time>2015-05-26T12:24:46Z</time>
      </trkpt>
      <trkpt lat="44.75502" lon="5.07292">
        <ele>295.49</ele>
        <time>2015-05-26T12:24:56Z</time>
      </trkpt>
      <trkpt lat="44.75493" lon="5.07282">
        <ele>295.56</ele>
        <time>2015-05-26T12:25:10Z</time>
      </trkpt>
      <trkpt lat="44.75485" lon="5.07274">
        <ele>295.57</ele>
        <time>2015-05-26T12:25:20Z</time>
      </trkpt>
      <trkpt lat="44.7546" lon="5.07253">
        <ele>294.63</ele>
        <time>2015-05-26T12:25:52Z</time>
      </trkpt>
      <trkpt lat="44.7545" lon="5.07236">
        <ele>294.2</ele>
        <time>2015-05-26T12:26:07Z</time>
      </trkpt>
      <trkpt lat="44.75433" lon="5.07221">
        <ele>294.3</ele>
        <time>2015-05-26T12:26:23Z</time>
      </trkpt>
      <trkpt lat="44.75409" lon="5.07191">
        <ele>296.17</ele>
        <time>2015-05-26T12:26:59Z</time>
      </trkpt>
      <trkpt lat="44.75305" lon="5.07093">
        <ele>304.04</ele>
        <time>2015-05-26T12:29:07Z</time>
      </trkpt>
      <trkpt lat="44.75193" lon="5.07004">
        <ele>309.37</ele>
        <time>2015-05-26T12:31:52Z</time>
      </trkpt>
      <trkpt lat="44.75175" lon="5.06981">
        <ele>309.76</ele>
        <time>2015-05-26T12:32:14Z</time>
      </trkpt>
      <trkpt lat="44.75179" lon="5.06951">
        <ele>310.11</ele>
        <time>2015-05-26T12:32:40Z</time>
      </trkpt>
      <trkpt lat="44.75205" lon="5.06927">
        <ele>311.19</ele>
        <time>2015-05-26T12:33:10Z</time>
      </trkpt>
      <trkpt lat="44.75223" lon="5.06912">
        <ele>311.66</ele>
        <time>2015-05-26T12:33:29Z</time>
      </trkpt>
      <trkpt lat="44.75232" lon="5.06905">
        <ele>311.97</ele>
        <time>2015-05-26T12:33:41Z</time>
      </trkpt>
      <trkpt lat="44.7524" lon="5.06888">
        <ele>312.27</ele>
        <time>2015-05-26T12:33:54Z</time>
      </trkpt>
      <trkpt lat="44.75243" lon="5.06868">
        <ele>312</ele>
        <time>2015-05-26T12:34:08Z</time>
      </trkpt>
      <trkpt lat="44.75256" lon="5.06846">
        <ele>312.21</ele>
        <time>2015-05-26T12:34:30Z</time>
      </trkpt>
      <trkpt lat="44.75269" lon="5.06827">
        <ele>312.82</ele>
        <time>2015-05-26T12:34:45Z</time>
      </trkpt>
      <trkpt lat="44.75276" lon="5.06817">
        <ele>313.49</ele>
        <time>2015-05-26T12:34:57Z</time>
      </trkpt>
      <trkpt lat="44.75283" lon="5.06806">
        <ele>313.1</ele>
        <time>2015-05-26T12:35:08Z</time>
      </trkpt>
      <trkpt lat="44.75286" lon="5.0677">
        <ele>313.36</ele>
        <time>2015-05-26T12:35:49Z</time>
      </trkpt>
      <trkpt lat="44.75196" lon="5.06785">
        <ele>315.46</ele>
        <time>2015-05-26T12:37:08Z</time>
      </trkpt>
      <trkpt lat="44.75179" lon="5.06789">
        <ele>315.37</ele>
        <time>2015-05-26T12:37:20Z</time>
      </trkpt>
      <trkpt lat="44.75148" lon="5.06802">
        <ele>314.66</ele>
        <time>2015-05-26T12:37:52Z</time>
      </trkpt>
      <trkpt lat="44.7513" lon="5.06805">
        <ele>314.53</ele>
        <time>2015-05-26T12:38:37Z</time>
      </trkpt>
      <trkpt lat="44.75103" lon="5.06792">
        <ele>314.87</ele>
        <time>2015-05-26T12:39:04Z</time>
      </trkpt>
      <trkpt lat="44.75092" lon="5.06768">
        <ele>316.32</ele>
        <time>2015-05-26T12:39:17Z</time>
      </trkpt>
      <trkpt lat="44.75082" lon="5.06738">
        <ele>321.14</ele>
        <time>2015-05-26T12:39:29Z</time>
      </trkpt>
      <trkpt lat="44.7508" lon="5.0672">
        <ele>321.89</ele>
        <time>2015-05-26T12:39:39Z</time>
      </trkpt>
      <trkpt lat="44.75081" lon="5.06702">
        <ele>322.39</ele>
        <time>2015-05-26T12:39:49Z</time>
      </trkpt>
      <trkpt lat="44.75082" lon="5.06688">
        <ele>323.76</ele>
        <time>2015-05-26T12:39:59Z</time>
      </trkpt>
      <trkpt lat="44.75072" lon="5.06646">
        <ele>326.49</ele>
        <time>2015-05-26T12:40:32Z</time>
      </trkpt>
      <trkpt lat="44.75056" lon="5.06634">
        <ele>326.78</ele>
        <time>2015-05-26T12:40:45Z</time>
      </trkpt>
      <trkpt lat="44.75032" lon="5.06631">
        <ele>327</ele>
        <time>2015-05-26T12:41:09Z</time>
      </trkpt>
      <trkpt lat="44.75021" lon="5.06631">
        <ele>326.71</ele>
        <time>2015-05-26T12:41:19Z</time>
      </trkpt>
      <trkpt lat="44.75002" lon="5.06627">
        <ele>327.46</ele>
        <time>2015-05-26T12:41:36Z</time>
      </trkpt>
      <trkpt lat="44.74997" lon="5.06625">
        <ele>325.7</ele>
        <time>2015-05-26T12:41:53Z</time>
      </trkpt>
      <trkpt lat="44.74985" lon="5.06626">
        <ele>325.23</ele>
        <time>2015-05-26T12:42:03Z</time>
      </trkpt>
      <trkpt lat="44.74965" lon="5.06623">
        <ele>325.49</ele>
        <time>2015-05-26T12:42:17Z</time>
      </trkpt>
      <trkpt lat="44.74944" lon="5.0662">
        <ele>325.98</ele>
        <time>2015-05-26T12:42:34Z</time>
      </trkpt>
      <trkpt lat="44.74914" lon="5.06601">
        <ele>328.1</ele>
        <time>2015-05-26T12:43:01Z</time>
      </trkpt>
      <trkpt lat="44.74903" lon="5.06583">
        <ele>327.76</ele>
        <time>2015-05-26T12:43:12Z</time>
      </trkpt>
      <trkpt lat="44.74894" lon="5.06568">
        <ele>329.02</ele>
        <time>2015-05-26T12:43:23Z</time>
      </trkpt>
      <trkpt lat="44.74888" lon="5.06554">
        <ele>330.53</ele>
        <time>2015-05-26T12:43:33Z</time>
      </trkpt>
      <trkpt lat="44.7488" lon="5.0654">
        <ele>330.99</ele>
        <time>2015-05-26T12:43:43Z</time>
      </trkpt>
      <trkpt lat="44.74872" lon="5.06528">
        <ele>331.74</ele>
        <time>2015-05-26T12:43:54Z</time>
      </trkpt>
      <trkpt lat="44.74863" lon="5.06515">
        <ele>333.25</ele>
        <time>2015-05-26T12:44:05Z</time>
      </trkpt>
      <trkpt lat="44.74856" lon="5.06503">
        <ele>334.29</ele>
        <time>2015-05-26T12:44:15Z</time>
      </trkpt>
      <trkpt lat="44.74849" lon="5.06487">
        <ele>335.27</ele>
        <time>2015-05-26T12:44:25Z</time>
      </trkpt>
      <trkpt lat="44.74838" lon="5.06472">
        <ele>337.34</ele>
        <time>2015-05-26T12:44:37Z</time>
      </trkpt>
      <trkpt lat="44.7483" lon="5.06458">
        <ele>338.27</ele>
        <time>2015-05-26T12:44:49Z</time>
      </trkpt>
      <trkpt lat="44.74801" lon="5.06436">
        <ele>339.05</ele>
        <time>2015-05-26T12:45:29Z</time>
      </trkpt>
      <trkpt lat="44.74788" lon="5.06434">
        <ele>338.59</ele>
        <time>2015-05-26T12:45:39Z</time>
      </trkpt>
      <trkpt lat="44.74772" lon="5.06424">
        <ele>339.1</ele>
        <time>2015-05-26T12:45:51Z</time>
      </trkpt>
      <trkpt lat="44.74752" lon="5.06415">
        <ele>338.13</ele>
        <time>2015-05-26T12:46:12Z</time>
      </trkpt>
      <trkpt lat="44.74739" lon="5.06395">
        <ele>336.47</ele>
        <time>2015-05-26T12:46:22Z</time>
      </trkpt>
      <trkpt lat="44.7473" lon="5.06391">
        <ele>334.62</ele>
        <time>2015-05-26T12:46:32Z</time>
      </trkpt>
      <trkpt lat="44.74719" lon="5.06392">
        <ele>333.21</ele>
        <time>2015-05-26T12:46:42Z</time>
      </trkpt>
      <trkpt lat="44.74709" lon="5.0639">
        <ele>333.13</ele>
        <time>2015-05-26T12:46:53Z</time>
      </trkpt>
      <trkpt lat="44.74694" lon="5.06384">
        <ele>332.33</ele>
        <time>2015-05-26T12:47:11Z</time>
      </trkpt>
      <trkpt lat="44.74682" lon="5.0638">
        <ele>331.8</ele>
        <time>2015-05-26T12:47:25Z</time>
      </trkpt>
      <trkpt lat="44.74635" lon="5.0638">
        <ele>328.93</ele>
        <time>2015-05-26T12:48:08Z</time>
      </trkpt>
      <trkpt lat="44.74615" lon="5.06373">
        <ele>327.74</ele>
        <time>2015-05-26T12:48:28Z</time>
      </trkpt>
      <trkpt lat="44.74598" lon="5.0637">
        <ele>326.21</ele>
        <time>2015-05-26T12:48:48Z</time>
      </trkpt>
      <trkpt lat="44.7457" lon="5.06363">
        <ele>324.43</ele>
        <time>2015-05-26T12:49:16Z</time>
      </trkpt>
      <trkpt lat="44.74532" lon="5.06353">
        <ele>322.03</ele>
        <time>2015-05-26T12:49:53Z</time>
      </trkpt>
      <trkpt lat="44.74524" lon="5.06339">
        <ele>340.31</ele>
        <time>2015-05-26T12:53:05Z</time>
      </trkpt>
      <trkpt lat="44.74513" lon="5.06344">
        <ele>340.69</ele>
        <time>2015-05-26T12:53:15Z</time>
      </trkpt>
      <trkpt lat="44.7451" lon="5.06338">
        <ele>342.2</ele>
        <time>2015-05-26T12:58:49Z</time>
      </trkpt>
      <trkpt lat="44.74505" lon="5.06339">
        <ele>344.29</ele>
        <time>2015-05-26T13:04:50Z</time>
      </trkpt>
      <trkpt lat="44.74495" lon="5.06335">
        <ele>344.42</ele>
        <time>2015-05-26T13:05:00Z</time>
      </trkpt>
      <trkpt lat="44.74452" lon="5.06331">
        <ele>343.83</ele>
        <time>2015-05-26T13:05:41Z</time>
      </trkpt>
      <trkpt lat="44.74365" lon="5.06324">
        <ele>342.23</ele>
        <time>2015-05-26T13:06:48Z</time>
      </trkpt>
      <trkpt lat="44.74344" lon="5.06331">
        <ele>341.23</ele>
        <time>2015-05-26T13:07:11Z</time>
      </trkpt>
      <trkpt lat="44.74323" lon="5.0633">
        <ele>341</ele>
        <time>2015-05-26T13:07:27Z</time>
      </trkpt>
      <trkpt lat="44.74298" lon="5.06337">
        <ele>339.61</ele>
        <time>2015-05-26T13:07:57Z</time>
      </trkpt>
      <trkpt lat="44.74282" lon="5.06339">
        <ele>339.13</ele>
        <time>2015-05-26T13:08:16Z</time>
      </trkpt>
      <trkpt lat="44.74267" lon="5.06336">
        <ele>338.73</ele>
        <time>2015-05-26T13:08:26Z</time>
      </trkpt>
      <trkpt lat="44.7426" lon="5.06339">
        <ele>338.21</ele>
        <time>2015-05-26T13:08:37Z</time>
      </trkpt>
      <trkpt lat="44.74251" lon="5.06341">
        <ele>337.9</ele>
        <time>2015-05-26T13:08:49Z</time>
      </trkpt>
      <trkpt lat="44.74229" lon="5.0634">
        <ele>337.9</ele>
        <time>2015-05-26T13:09:11Z</time>
      </trkpt>
      <trkpt lat="44.74208" lon="5.06335">
        <ele>338</ele>
        <time>2015-05-26T13:09:36Z</time>
      </trkpt>
      <trkpt lat="44.74055" lon="5.06309">
        <ele>346.1</ele>
        <time>2015-05-26T13:12:25Z</time>
      </trkpt>
      <trkpt lat="44.74039" lon="5.06303">
        <ele>347.29</ele>
        <time>2015-05-26T13:12:44Z</time>
      </trkpt>
      <trkpt lat="44.74026" lon="5.06295">
        <ele>348.39</ele>
        <time>2015-05-26T13:12:58Z</time>
      </trkpt>
      <trkpt lat="44.74016" lon="5.06288">
        <ele>349.17</ele>
        <time>2015-05-26T13:13:09Z</time>
      </trkpt>
      <trkpt lat="44.74004" lon="5.06285">
        <ele>349.75</ele>
        <time>2015-05-26T13:13:22Z</time>
      </trkpt>
      <trkpt lat="44.73988" lon="5.06285">
        <ele>349.3</ele>
        <time>2015-05-26T13:13:38Z</time>
      </trkpt>
      <trkpt lat="44.73979" lon="5.0628">
        <ele>351.52</ele>
        <time>2015-05-26T13:13:49Z</time>
      </trkpt>
      <trkpt lat="44.73971" lon="5.06278">
        <ele>352.85</ele>
        <time>2015-05-26T13:13:59Z</time>
      </trkpt>
      <trkpt lat="44.73961" lon="5.06276">
        <ele>353.79</ele>
        <time>2015-05-26T13:14:09Z</time>
      </trkpt>
      <trkpt lat="44.73953" lon="5.06274">
        <ele>354.29</ele>
        <time>2015-05-26T13:14:19Z</time>
      </trkpt>
      <trkpt lat="44.73943" lon="5.0627">
        <ele>354.77</ele>
        <time>2015-05-26T13:14:29Z</time>
      </trkpt>
      <trkpt lat="44.73933" lon="5.06267">
        <ele>355.3</ele>
        <time>2015-05-26T13:14:39Z</time>
      </trkpt>
      <trkpt lat="44.73923" lon="5.06266">
        <ele>355.89</ele>
        <time>2015-05-26T13:14:49Z</time>
      </trkpt>
      <trkpt lat="44.73913" lon="5.06265">
        <ele>356.02</ele>
        <time>2015-05-26T13:15:00Z</time>
      </trkpt>
      <trkpt lat="44.73891" lon="5.06264">
        <ele>357.47</ele>
        <time>2015-05-26T13:15:20Z</time>
      </trkpt>
      <trkpt lat="44.73884" lon="5.06262">
        <ele>357.89</ele>
        <time>2015-05-26T13:15:30Z</time>
      </trkpt>
      <trkpt lat="44.73873" lon="5.0626">
        <ele>358.47</ele>
        <time>2015-05-26T13:15:41Z</time>
      </trkpt>
      <trkpt lat="44.73864" lon="5.0626">
        <ele>358.89</ele>
        <time>2015-05-26T13:15:53Z</time>
      </trkpt>
      <trkpt lat="44.73855" lon="5.0626">
        <ele>359.5</ele>
        <time>2015-05-26T13:16:07Z</time>
      </trkpt>
      <trkpt lat="44.73843" lon="5.06257">
        <ele>359.7</ele>
        <time>2015-05-26T13:16:17Z</time>
      </trkpt>
      <trkpt lat="44.73826" lon="5.06256">
        <ele>360.2</ele>
        <time>2015-05-26T13:16:34Z</time>
      </trkpt>
      <trkpt lat="44.73814" lon="5.06255">
        <ele>360.1</ele>
        <time>2015-05-26T13:16:46Z</time>
      </trkpt>
      <trkpt lat="44.73806" lon="5.06251">
        <ele>359.73</ele>
        <time>2015-05-26T13:16:56Z</time>
      </trkpt>
      <trkpt lat="44.73797" lon="5.06245">
        <ele>359.5</ele>
        <time>2015-05-26T13:17:07Z</time>
      </trkpt>
      <trkpt lat="44.73786" lon="5.06242">
        <ele>359.4</ele>
        <time>2015-05-26T13:17:18Z</time>
      </trkpt>
      <trkpt lat="44.73777" lon="5.06241">
        <ele>359.18</ele>
        <time>2015-05-26T13:17:28Z</time>
      </trkpt>
      <trkpt lat="44.73763" lon="5.06238">
        <ele>359</ele>
        <time>2015-05-26T13:17:39Z</time>
      </trkpt>
      <trkpt lat="44.73754" lon="5.06238">
        <ele>358.8</ele>
        <time>2015-05-26T13:17:49Z</time>
      </trkpt>
      <trkpt lat="44.73743" lon="5.06238">
        <ele>358.48</ele>
        <time>2015-05-26T13:17:59Z</time>
      </trkpt>
      <trkpt lat="44.73728" lon="5.06236">
        <ele>358</ele>
        <time>2015-05-26T13:18:13Z</time>
      </trkpt>
      <trkpt lat="44.73717" lon="5.06237">
        <ele>357.53</ele>
        <time>2015-05-26T13:18:23Z</time>
      </trkpt>
      <trkpt lat="44.73707" lon="5.06238">
        <ele>356.73</ele>
        <time>2015-05-26T13:18:33Z</time>
      </trkpt>
      <trkpt lat="44.73697" lon="5.06238">
        <ele>356.3</ele>
        <time>2015-05-26T13:18:44Z</time>
      </trkpt>
      <trkpt lat="44.73685" lon="5.06237">
        <ele>355.73</ele>
        <time>2015-05-26T13:18:54Z</time>
      </trkpt>
      <trkpt lat="44.73675" lon="5.06236">
        <ele>355.5</ele>
        <time>2015-05-26T13:19:05Z</time>
      </trkpt>
      <trkpt lat="44.73661" lon="5.06234">
        <ele>355.11</ele>
        <time>2015-05-26T13:19:15Z</time>
      </trkpt>
      <trkpt lat="44.73647" lon="5.06231">
        <ele>354.8</ele>
        <time>2015-05-26T13:19:27Z</time>
      </trkpt>
      <trkpt lat="44.73636" lon="5.06226">
        <ele>354.61</ele>
        <time>2015-05-26T13:19:37Z</time>
      </trkpt>
      <trkpt lat="44.73628" lon="5.0622">
        <ele>354.4</ele>
        <time>2015-05-26T13:19:47Z</time>
      </trkpt>
      <trkpt lat="44.73619" lon="5.06211">
        <ele>354.23</ele>
        <time>2015-05-26T13:19:59Z</time>
      </trkpt>
      <trkpt lat="44.73599" lon="5.06198">
        <ele>353.73</ele>
        <time>2015-05-26T13:20:16Z</time>
      </trkpt>
      <trkpt lat="44.7359" lon="5.06193">
        <ele>353.25</ele>
        <time>2015-05-26T13:20:26Z</time>
      </trkpt>
      <trkpt lat="44.73576" lon="5.06186">
        <ele>353.18</ele>
        <time>2015-05-26T13:20:38Z</time>
      </trkpt>
      <trkpt lat="44.73566" lon="5.06183">
        <ele>352.8</ele>
        <time>2015-05-26T13:20:48Z</time>
      </trkpt>
      <trkpt lat="44.73556" lon="5.06181">
        <ele>353</ele>
        <time>2015-05-26T13:20:58Z</time>
      </trkpt>
      <trkpt lat="44.73544" lon="5.06173">
        <ele>352.73</ele>
        <time>2015-05-26T13:21:09Z</time>
      </trkpt>
      <trkpt lat="44.73532" lon="5.0617">
        <ele>352.4</ele>
        <time>2015-05-26T13:21:19Z</time>
      </trkpt>
      <trkpt lat="44.73521" lon="5.06168">
        <ele>352.11</ele>
        <time>2015-05-26T13:21:29Z</time>
      </trkpt>
      <trkpt lat="44.73483" lon="5.06146">
        <ele>349.73</ele>
        <time>2015-05-26T13:22:11Z</time>
      </trkpt>
      <trkpt lat="44.7346" lon="5.06128">
        <ele>348.5</ele>
        <time>2015-05-26T13:22:35Z</time>
      </trkpt>
      <trkpt lat="44.73445" lon="5.06116">
        <ele>348.18</ele>
        <time>2015-05-26T13:22:48Z</time>
      </trkpt>
      <trkpt lat="44.73426" lon="5.06086">
        <ele>346.41</ele>
        <time>2015-05-26T13:23:18Z</time>
      </trkpt>
      <trkpt lat="44.73403" lon="5.06063">
        <ele>344.83</ele>
        <time>2015-05-26T13:23:45Z</time>
      </trkpt>
      <trkpt lat="44.73389" lon="5.06052">
        <ele>343.43</ele>
        <time>2015-05-26T13:24:06Z</time>
      </trkpt>
      <trkpt lat="44.73343" lon="5.06025">
        <ele>340.93</ele>
        <time>2015-05-26T13:24:54Z</time>
      </trkpt>
      <trkpt lat="44.73329" lon="5.06018">
        <ele>340.23</ele>
        <time>2015-05-26T13:25:08Z</time>
      </trkpt>
      <trkpt lat="44.73319" lon="5.06012">
        <ele>338.83</ele>
        <time>2015-05-26T13:25:20Z</time>
      </trkpt>
      <trkpt lat="44.73295" lon="5.05986">
        <ele>336.43</ele>
        <time>2015-05-26T13:25:50Z</time>
      </trkpt>
      <trkpt lat="44.73278" lon="5.05962">
        <ele>334.53</ele>
        <time>2015-05-26T13:26:11Z</time>
      </trkpt>
      <trkpt lat="44.73269" lon="5.05947">
        <ele>334.01</ele>
        <time>2015-05-26T13:26:21Z</time>
      </trkpt>
      <trkpt lat="44.73263" lon="5.05939">
        <ele>333.03</ele>
        <time>2015-05-26T13:26:31Z</time>
      </trkpt>
      <trkpt lat="44.73253" lon="5.0593">
        <ele>332.11</ele>
        <time>2015-05-26T13:26:41Z</time>
      </trkpt>
      <trkpt lat="44.73243" lon="5.05924">
        <ele>331.4</ele>
        <time>2015-05-26T13:26:51Z</time>
      </trkpt>
      <trkpt lat="44.73232" lon="5.05918">
        <ele>330.73</ele>
        <time>2015-05-26T13:27:01Z</time>
      </trkpt>
      <trkpt lat="44.73225" lon="5.05915">
        <ele>330.03</ele>
        <time>2015-05-26T13:27:11Z</time>
      </trkpt>
      <trkpt lat="44.73217" lon="5.05916">
        <ele>330.2</ele>
        <time>2015-05-26T13:27:21Z</time>
      </trkpt>
      <trkpt lat="44.73208" lon="5.05923">
        <ele>329.87</ele>
        <time>2015-05-26T13:27:31Z</time>
      </trkpt>
      <trkpt lat="44.73198" lon="5.05937">
        <ele>328.41</ele>
        <time>2015-05-26T13:27:44Z</time>
      </trkpt>
      <trkpt lat="44.7319" lon="5.05933">
        <ele>326.97</ele>
        <time>2015-05-26T13:27:54Z</time>
      </trkpt>
      <trkpt lat="44.73185" lon="5.05919">
        <ele>325.71</ele>
        <time>2015-05-26T13:28:06Z</time>
      </trkpt>
      <trkpt lat="44.73178" lon="5.05907">
        <ele>325.03</ele>
        <time>2015-05-26T13:28:16Z</time>
      </trkpt>
      <trkpt lat="44.73171" lon="5.05898">
        <ele>323.84</ele>
        <time>2015-05-26T13:28:26Z</time>
      </trkpt>
      <trkpt lat="44.73165" lon="5.05891">
        <ele>323.98</ele>
        <time>2015-05-26T13:28:36Z</time>
      </trkpt>
      <trkpt lat="44.73161" lon="5.05887">
        <ele>323.26</ele>
        <time>2015-05-26T13:28:47Z</time>
      </trkpt>
      <trkpt lat="44.73149" lon="5.05882">
        <ele>322.61</ele>
        <time>2015-05-26T13:28:57Z</time>
      </trkpt>
      <trkpt lat="44.73126" lon="5.05874">
        <ele>321.21</ele>
        <time>2015-05-26T13:29:21Z</time>
      </trkpt>
      <trkpt lat="44.72961" lon="5.05879">
        <ele>317.35</ele>
        <time>2015-05-26T13:32:05Z</time>
      </trkpt>
      <trkpt lat="44.72931" lon="5.0589">
        <ele>317.1</ele>
        <time>2015-05-26T13:32:34Z</time>
      </trkpt>
      <trkpt lat="44.7291" lon="5.05912">
        <ele>313.26</ele>
        <time>2015-05-26T13:33:00Z</time>
      </trkpt>
      <trkpt lat="44.72904" lon="5.05923">
        <ele>311.46</ele>
        <time>2015-05-26T13:33:12Z</time>
      </trkpt>
      <trkpt lat="44.72891" lon="5.0593">
        <ele>310.36</ele>
        <time>2015-05-26T13:33:27Z</time>
      </trkpt>
      <trkpt lat="44.72861" lon="5.05958">
        <ele>307.85</ele>
        <time>2015-05-26T13:34:04Z</time>
      </trkpt>
      <trkpt lat="44.72841" lon="5.0598">
        <ele>306.53</ele>
        <time>2015-05-26T13:34:25Z</time>
      </trkpt>
      <trkpt lat="44.72828" lon="5.05987">
        <ele>306.4</ele>
        <time>2015-05-26T13:34:37Z</time>
      </trkpt>
      <trkpt lat="44.72817" lon="5.05997">
        <ele>306</ele>
        <time>2015-05-26T13:34:47Z</time>
      </trkpt>
      <trkpt lat="44.72792" lon="5.06022">
        <ele>304.08</ele>
        <time>2015-05-26T13:35:18Z</time>
      </trkpt>
      <trkpt lat="44.72786" lon="5.06033">
        <ele>302.13</ele>
        <time>2015-05-26T13:35:30Z</time>
      </trkpt>
      <trkpt lat="44.72776" lon="5.06041">
        <ele>303.02</ele>
        <time>2015-05-26T13:35:40Z</time>
      </trkpt>
      <trkpt lat="44.72769" lon="5.06053">
        <ele>301.56</ele>
        <time>2015-05-26T13:35:50Z</time>
      </trkpt>
      <trkpt lat="44.72769" lon="5.06067">
        <ele>300.16</ele>
        <time>2015-05-26T13:36:00Z</time>
      </trkpt>
      <trkpt lat="44.72777" lon="5.06071">
        <ele>297.27</ele>
        <time>2015-05-26T13:36:12Z</time>
      </trkpt>
      <trkpt lat="44.72792" lon="5.06069">
        <ele>293.66</ele>
        <time>2015-05-26T13:36:29Z</time>
      </trkpt>
      <trkpt lat="44.72761" lon="5.06097">
        <ele>290.25</ele>
        <time>2015-05-26T13:37:11Z</time>
      </trkpt>
      <trkpt lat="44.7274" lon="5.06106">
        <ele>289.71</ele>
        <time>2015-05-26T13:37:29Z</time>
      </trkpt>
      <trkpt lat="44.72723" lon="5.06119">
        <ele>288.73</ele>
        <time>2015-05-26T13:37:45Z</time>
      </trkpt>
      <trkpt lat="44.7265" lon="5.06043">
        <ele>276.69</ele>
        <time>2015-05-26T13:42:46Z</time>
      </trkpt>
      <trkpt lat="44.72647" lon="5.06033">
        <ele>275.66</ele>
        <time>2015-05-26T13:42:56Z</time>
      </trkpt>
      <trkpt lat="44.7265" lon="5.06027">
        <ele>272.62</ele>
        <time>2015-05-26T13:43:06Z</time>
      </trkpt>
      <trkpt lat="44.72653" lon="5.06012">
        <ele>271.04</ele>
        <time>2015-05-26T13:43:16Z</time>
      </trkpt>
      <trkpt lat="44.72657" lon="5.05998">
        <ele>270.24</ele>
        <time>2015-05-26T13:43:27Z</time>
      </trkpt>
      <trkpt lat="44.7266" lon="5.05981">
        <ele>268.49</ele>
        <time>2015-05-26T13:43:38Z</time>
      </trkpt>
      <trkpt lat="44.72663" lon="5.05966">
        <ele>266.46</ele>
        <time>2015-05-26T13:43:48Z</time>
      </trkpt>
      <trkpt lat="44.72668" lon="5.05951">
        <ele>264.93</ele>
        <time>2015-05-26T13:43:59Z</time>
      </trkpt>
      <trkpt lat="44.72668" lon="5.05938">
        <ele>264.53</ele>
        <time>2015-05-26T13:44:09Z</time>
      </trkpt>
      <trkpt lat="44.7267" lon="5.05924">
        <ele>263.41</ele>
        <time>2015-05-26T13:44:20Z</time>
      </trkpt>
      <trkpt lat="44.72671" lon="5.05913">
        <ele>262.34</ele>
        <time>2015-05-26T13:44:30Z</time>
      </trkpt>
      <trkpt lat="44.72673" lon="5.05895">
        <ele>260.73</ele>
        <time>2015-05-26T13:44:42Z</time>
      </trkpt>
      <trkpt lat="44.72678" lon="5.0588">
        <ele>260.3</ele>
        <time>2015-05-26T13:44:52Z</time>
      </trkpt>
      <trkpt lat="44.72681" lon="5.05863">
        <ele>259.5</ele>
        <time>2015-05-26T13:45:05Z</time>
      </trkpt>
      <trkpt lat="44.72684" lon="5.05843">
        <ele>258.71</ele>
        <time>2015-05-26T13:45:20Z</time>
      </trkpt>
      <trkpt lat="44.72688" lon="5.05829">
        <ele>258.13</ele>
        <time>2015-05-26T13:45:30Z</time>
      </trkpt>
      <trkpt lat="44.72692" lon="5.05815">
        <ele>257.73</ele>
        <time>2015-05-26T13:45:40Z</time>
      </trkpt>
      <trkpt lat="44.72691" lon="5.05794">
        <ele>256.71</ele>
        <time>2015-05-26T13:45:56Z</time>
      </trkpt>
      <trkpt lat="44.72671" lon="5.05787">
        <ele>256.23</ele>
        <time>2015-05-26T13:46:15Z</time>
      </trkpt>
      <trkpt lat="44.72662" lon="5.05786">
        <ele>255.83</ele>
        <time>2015-05-26T13:46:27Z</time>
      </trkpt>
      <trkpt lat="44.72649" lon="5.05783">
        <ele>255.41</ele>
        <time>2015-05-26T13:46:37Z</time>
      </trkpt>
      <trkpt lat="44.72632" lon="5.05778">
        <ele>254.71</ele>
        <time>2015-05-26T13:46:53Z</time>
      </trkpt>
      <trkpt lat="44.72612" lon="5.05773">
        <ele>253.61</ele>
        <time>2015-05-26T13:47:18Z</time>
      </trkpt>
      <trkpt lat="44.72584" lon="5.05766">
        <ele>252.33</ele>
        <time>2015-05-26T13:47:41Z</time>
      </trkpt>
      <trkpt lat="44.72571" lon="5.0576">
        <ele>251.9</ele>
        <time>2015-05-26T13:47:54Z</time>
      </trkpt>
      <trkpt lat="44.72517" lon="5.05747">
        <ele>247.03</ele>
        <time>2015-05-26T13:48:49Z</time>
      </trkpt>
      <trkpt lat="44.72501" lon="5.05746">
        <ele>245.93</ele>
        <time>2015-05-26T13:49:01Z</time>
      </trkpt>
      <trkpt lat="44.7248" lon="5.05745">
        <ele>244.21</ele>
        <time>2015-05-26T13:49:20Z</time>
      </trkpt>
      <trkpt lat="44.72471" lon="5.05739">
        <ele>241.87</ele>
        <time>2015-05-26T13:49:32Z</time>
      </trkpt>
      <trkpt lat="44.72461" lon="5.05737">
        <ele>240.79</ele>
        <time>2015-05-26T13:49:42Z</time>
      </trkpt>
      <trkpt lat="44.7245" lon="5.05731">
        <ele>239.08</ele>
        <time>2015-05-26T13:49:52Z</time>
      </trkpt>
      <trkpt lat="44.72438" lon="5.05725">
        <ele>237.65</ele>
        <time>2015-05-26T13:50:02Z</time>
      </trkpt>
      <trkpt lat="44.72428" lon="5.05723">
        <ele>236.63</ele>
        <time>2015-05-26T13:50:12Z</time>
      </trkpt>
      <trkpt lat="44.72415" lon="5.05718">
        <ele>236.11</ele>
        <time>2015-05-26T13:50:23Z</time>
      </trkpt>
      <trkpt lat="44.72404" lon="5.05715">
        <ele>235.26</ele>
        <time>2015-05-26T13:50:34Z</time>
      </trkpt>
      <trkpt lat="44.72394" lon="5.05712">
        <ele>235.89</ele>
        <time>2015-05-26T13:50:45Z</time>
      </trkpt>
      <trkpt lat="44.72385" lon="5.05711">
        <ele>236.13</ele>
        <time>2015-05-26T13:50:56Z</time>
      </trkpt>
      <trkpt lat="44.72373" lon="5.05706">
        <ele>235.83</ele>
        <time>2015-05-26T13:51:06Z</time>
      </trkpt>
      <trkpt lat="44.72353" lon="5.057">
        <ele>235.53</ele>
        <time>2015-05-26T13:51:28Z</time>
      </trkpt>
      <trkpt lat="44.7234" lon="5.05696">
        <ele>234.73</ele>
        <time>2015-05-26T13:51:42Z</time>
      </trkpt>
      <trkpt lat="44.72325" lon="5.05686">
        <ele>234.23</ele>
        <time>2015-05-26T13:51:54Z</time>
      </trkpt>
      <trkpt lat="44.72315" lon="5.05685">
        <ele>233.52</ele>
        <time>2015-05-26T13:52:04Z</time>
      </trkpt>
      <trkpt lat="44.72306" lon="5.05682">
        <ele>233.4</ele>
        <time>2015-05-26T13:52:15Z</time>
      </trkpt>
      <trkpt lat="44.72296" lon="5.05681">
        <ele>232.16</ele>
        <time>2015-05-26T13:52:25Z</time>
      </trkpt>
      <trkpt lat="44.72286" lon="5.05676">
        <ele>231.01</ele>
        <time>2015-05-26T13:52:35Z</time>
      </trkpt>
      <trkpt lat="44.72275" lon="5.05674">
        <ele>229.73</ele>
        <time>2015-05-26T13:52:45Z</time>
      </trkpt>
      <trkpt lat="44.72261" lon="5.0567">
        <ele>229.97</ele>
        <time>2015-05-26T13:52:58Z</time>
      </trkpt>
      <trkpt lat="44.72236" lon="5.05662">
        <ele>229.26</ele>
        <time>2015-05-26T13:53:20Z</time>
      </trkpt>
      <trkpt lat="44.72204" lon="5.05654">
        <ele>225.17</ele>
        <time>2015-05-26T13:53:51Z</time>
      </trkpt>
      <trkpt lat="44.72196" lon="5.05649">
        <ele>224.71</ele>
        <time>2015-05-26T13:54:01Z</time>
      </trkpt>
      <trkpt lat="44.72186" lon="5.05646">
        <ele>223.51</ele>
        <time>2015-05-26T13:54:12Z</time>
      </trkpt>
      <trkpt lat="44.72171" lon="5.05643">
        <ele>223.64</ele>
        <time>2015-05-26T13:54:24Z</time>
      </trkpt>
      <trkpt lat="44.72158" lon="5.05637">
        <ele>223.64</ele>
        <time>2015-05-26T13:54:35Z</time>
      </trkpt>
      <trkpt lat="44.72146" lon="5.05636">
        <ele>221.54</ele>
        <time>2015-05-26T13:54:47Z</time>
      </trkpt>
      <trkpt lat="44.72132" lon="5.05631">
        <ele>218.97</ele>
        <time>2015-05-26T13:54:59Z</time>
      </trkpt>
      <trkpt lat="44.72115" lon="5.05626">
        <ele>216.34</ele>
        <time>2015-05-26T13:55:18Z</time>
      </trkpt>
      <trkpt lat="44.72102" lon="5.05623">
        <ele>215.13</ele>
        <time>2015-05-26T13:55:28Z</time>
      </trkpt>
      <trkpt lat="44.72094" lon="5.05622">
        <ele>214.11</ele>
        <time>2015-05-26T13:55:38Z</time>
      </trkpt>
      <trkpt lat="44.72087" lon="5.05611">
        <ele>213.96</ele>
        <time>2015-05-26T13:55:49Z</time>
      </trkpt>
      <trkpt lat="44.72086" lon="5.05581">
        <ele>217</ele>
        <time>2015-05-26T13:56:00Z</time>
      </trkpt>
      <trkpt lat="44.72077" lon="5.05554">
        <ele>217.9</ele>
        <time>2015-05-26T13:56:27Z</time>
      </trkpt>
      <trkpt lat="44.7206" lon="5.0555">
        <ele>218.85</ele>
        <time>2015-05-26T13:56:37Z</time>
      </trkpt>
      <trkpt lat="44.72052" lon="5.05544">
        <ele>220.07</ele>
        <time>2015-05-26T13:56:48Z</time>
      </trkpt>
      <trkpt lat="44.72041" lon="5.05538">
        <ele>220.53</ele>
        <time>2015-05-26T13:57:00Z</time>
      </trkpt>
      <trkpt lat="44.72035" lon="5.05531">
        <ele>220.32</ele>
        <time>2015-05-26T13:57:10Z</time>
      </trkpt>
      <trkpt lat="44.72025" lon="5.05526">
        <ele>221.79</ele>
        <time>2015-05-26T13:57:20Z</time>
      </trkpt>
      <trkpt lat="44.72015" lon="5.05523">
        <ele>223.86</ele>
        <time>2015-05-26T13:57:30Z</time>
      </trkpt>
      <trkpt lat="44.71999" lon="5.05518">
        <ele>225.44</ele>
        <time>2015-05-26T13:57:42Z</time>
      </trkpt>
      <trkpt lat="44.7199" lon="5.05516">
        <ele>226.69</ele>
        <time>2015-05-26T13:57:52Z</time>
      </trkpt>
      <trkpt lat="44.71979" lon="5.05515">
        <ele>226.77</ele>
        <time>2015-05-26T13:58:02Z</time>
      </trkpt>
      <trkpt lat="44.71968" lon="5.0551">
        <ele>226.52</ele>
        <time>2015-05-26T13:58:14Z</time>
      </trkpt>
      <trkpt lat="44.71955" lon="5.05506">
        <ele>226.47</ele>
        <time>2015-05-26T13:58:27Z</time>
      </trkpt>
      <trkpt lat="44.71944" lon="5.05501">
        <ele>227.07</ele>
        <time>2015-05-26T13:58:37Z</time>
      </trkpt>
      <trkpt lat="44.71935" lon="5.055">
        <ele>227.27</ele>
        <time>2015-05-26T13:58:47Z</time>
      </trkpt>
      <trkpt lat="44.71927" lon="5.05499">
        <ele>227.59</ele>
        <time>2015-05-26T13:58:57Z</time>
      </trkpt>
      <trkpt lat="44.71914" lon="5.05498">
        <ele>228.3</ele>
        <time>2015-05-26T13:59:08Z</time>
      </trkpt>
      <trkpt lat="44.71904" lon="5.05495">
        <ele>228.5</ele>
        <time>2015-05-26T13:59:18Z</time>
      </trkpt>
      <trkpt lat="44.71893" lon="5.05494">
        <ele>229.1</ele>
        <time>2015-05-26T13:59:30Z</time>
      </trkpt>
      <trkpt lat="44.71882" lon="5.05492">
        <ele>229.77</ele>
        <time>2015-05-26T13:59:40Z</time>
      </trkpt>
      <trkpt lat="44.71875" lon="5.05491">
        <ele>230.2</ele>
        <time>2015-05-26T13:59:50Z</time>
      </trkpt>
      <trkpt lat="44.71861" lon="5.05492">
        <ele>231.07</ele>
        <time>2015-05-26T14:00:03Z</time>
      </trkpt>
      <trkpt lat="44.71851" lon="5.05491">
        <ele>231.4</ele>
        <time>2015-05-26T14:00:13Z</time>
      </trkpt>
      <trkpt lat="44.71839" lon="5.05489">
        <ele>231.33</ele>
        <time>2015-05-26T14:00:23Z</time>
      </trkpt>
      <trkpt lat="44.71828" lon="5.05486">
        <ele>232.57</ele>
        <time>2015-05-26T14:00:36Z</time>
      </trkpt>
      <trkpt lat="44.71813" lon="5.05485">
        <ele>233.12</ele>
        <time>2015-05-26T14:00:50Z</time>
      </trkpt>
      <trkpt lat="44.71786" lon="5.05477">
        <ele>234.94</ele>
        <time>2015-05-26T14:01:17Z</time>
      </trkpt>
      <trkpt lat="44.71761" lon="5.05476">
        <ele>236.07</ele>
        <time>2015-05-26T14:01:40Z</time>
      </trkpt>
      <trkpt lat="44.71735" lon="5.05467">
        <ele>235.8</ele>
        <time>2015-05-26T14:02:04Z</time>
      </trkpt>
      <trkpt lat="44.71709" lon="5.05466">
        <ele>234.37</ele>
        <time>2015-05-26T14:02:28Z</time>
      </trkpt>
      <trkpt lat="44.71695" lon="5.05471">
        <ele>233.23</ele>
        <time>2015-05-26T14:02:43Z</time>
      </trkpt>
      <trkpt lat="44.71686" lon="5.05481">
        <ele>232.46</ele>
        <time>2015-05-26T14:02:54Z</time>
      </trkpt>
      <trkpt lat="44.71683" lon="5.05494">
        <ele>230.84</ele>
        <time>2015-05-26T14:03:04Z</time>
      </trkpt>
      <trkpt lat="44.71678" lon="5.0551">
        <ele>229.8</ele>
        <time>2015-05-26T14:03:17Z</time>
      </trkpt>
      <trkpt lat="44.71672" lon="5.05516">
        <ele>228.71</ele>
        <time>2015-05-26T14:03:27Z</time>
      </trkpt>
      <trkpt lat="44.71666" lon="5.05525">
        <ele>225.16</ele>
        <time>2015-05-26T14:03:37Z</time>
      </trkpt>
      <trkpt lat="44.71662" lon="5.05521">
        <ele>220.55</ele>
        <time>2015-05-26T14:03:47Z</time>
      </trkpt>
      <trkpt lat="44.71658" lon="5.05514">
        <ele>218.33</ele>
        <time>2015-05-26T14:03:57Z</time>
      </trkpt>
      <trkpt lat="44.7165" lon="5.05509">
        <ele>215.28</ele>
        <time>2015-05-26T14:04:33Z</time>
      </trkpt>
      <trkpt lat="44.71632" lon="5.05514">
        <ele>213.81</ele>
        <time>2015-05-26T14:05:27Z</time>
      </trkpt>
      <trkpt lat="44.71617" lon="5.05516">
        <ele>213.73</ele>
        <time>2015-05-26T14:05:37Z</time>
      </trkpt>
      <trkpt lat="44.71609" lon="5.05522">
        <ele>213.11</ele>
        <time>2015-05-26T14:05:48Z</time>
      </trkpt>
      <trkpt lat="44.71602" lon="5.05523">
        <ele>212.51</ele>
        <time>2015-05-26T14:05:59Z</time>
      </trkpt>
      <trkpt lat="44.71594" lon="5.05524">
        <ele>212.4</ele>
        <time>2015-05-26T14:06:09Z</time>
      </trkpt>
      <trkpt lat="44.71565" lon="5.05599">
        <ele>204.99</ele>
        <time>2015-05-26T14:14:53Z</time>
      </trkpt>
      <trkpt lat="44.71556" lon="5.056">
        <ele>203.4</ele>
        <time>2015-05-26T14:15:28Z</time>
      </trkpt>
      <trkpt lat="44.71559" lon="5.05593">
        <ele>202.62</ele>
        <time>2015-05-26T14:16:04Z</time>
      </trkpt>
      <trkpt lat="44.71562" lon="5.05599">
        <ele>204.3</ele>
        <time>2015-05-26T14:16:41Z</time>
      </trkpt>
      <trkpt lat="44.71557" lon="5.05605">
        <ele>204.5</ele>
        <time>2015-05-26T14:16:51Z</time>
      </trkpt>
      <trkpt lat="44.7154" lon="5.0566">
        <ele>204.32</ele>
        <time>2015-05-26T14:17:44Z</time>
      </trkpt>
      <trkpt lat="44.71538" lon="5.05676">
        <ele>204.57</ele>
        <time>2015-05-26T14:17:54Z</time>
      </trkpt>
      <trkpt lat="44.71535" lon="5.057">
        <ele>204.51</ele>
        <time>2015-05-26T14:18:05Z</time>
      </trkpt>
      <trkpt lat="44.7152" lon="5.05707">
        <ele>204.5</ele>
        <time>2015-05-26T14:18:27Z</time>
      </trkpt>
      <trkpt lat="44.71508" lon="5.0571">
        <ele>204.6</ele>
        <time>2015-05-26T14:18:37Z</time>
      </trkpt>
      <trkpt lat="44.71498" lon="5.05712">
        <ele>204.4</ele>
        <time>2015-05-26T14:18:47Z</time>
      </trkpt>
      <trkpt lat="44.71491" lon="5.05712">
        <ele>205.19</ele>
        <time>2015-05-26T14:19:01Z</time>
      </trkpt>
      <trkpt lat="44.71484" lon="5.05713">
        <ele>205.6</ele>
        <time>2015-05-26T14:19:11Z</time>
      </trkpt>
      <trkpt lat="44.71475" lon="5.05713">
        <ele>206.47</ele>
        <time>2015-05-26T14:19:21Z</time>
      </trkpt>
      <trkpt lat="44.71463" lon="5.05712">
        <ele>206.97</ele>
        <time>2015-05-26T14:19:31Z</time>
      </trkpt>
      <trkpt lat="44.71451" lon="5.05709">
        <ele>207.3</ele>
        <time>2015-05-26T14:19:44Z</time>
      </trkpt>
      <trkpt lat="44.71439" lon="5.05707">
        <ele>207.59</ele>
        <time>2015-05-26T14:19:54Z</time>
      </trkpt>
      <trkpt lat="44.71432" lon="5.057">
        <ele>207.23</ele>
        <time>2015-05-26T14:20:04Z</time>
      </trkpt>
      <trkpt lat="44.71428" lon="5.0569">
        <ele>207.2</ele>
        <time>2015-05-26T14:20:17Z</time>
      </trkpt>
      <trkpt lat="44.71424" lon="5.0568">
        <ele>207</ele>
        <time>2015-05-26T14:20:27Z</time>
      </trkpt>
      <trkpt lat="44.71422" lon="5.05662">
        <ele>206.33</ele>
        <time>2015-05-26T14:20:37Z</time>
      </trkpt>
      <trkpt lat="44.7142" lon="5.05649">
        <ele>205.63</ele>
        <time>2015-05-26T14:20:47Z</time>
      </trkpt>
      <trkpt lat="44.71418" lon="5.05647">
        <ele>204.9</ele>
        <time>2015-05-26T14:21:00Z</time>
      </trkpt>
    </trkseg>
  </trk>
</gpx>